<?xml version="1.0" encoding="UTF-8" standalone="no" ?>
<gpx xmlns="http://www.topografix.com/GPX/1/1" xmlns:xsi="http://www.w3.org/2001/XMLSchema-instance" xsi:schemaLocation="http://www.topografix.com/GPX/1/1 http://www.topografix.com/GPX/1/1/gpx.xsd" version="1.1" creator="VisuGPX - https://www.visugpx.com">
  <metadata>
    <name>2020-07-18 12:08:46</name>
  </metadata>
  <trk>
    <name><![CDATA[2020-07-18 12:08:46]]></name>
    <trkseg>
      <trkpt lat="44.82614" lon="4.68017">
        <ele>155.39</ele>
        <time>2020-07-18T07:24:19Z</time>
      </trkpt>
      <trkpt lat="44.82614" lon="4.68017">
        <ele>155.39</ele>
        <time>2020-07-18T07:24:25Z</time>
      </trkpt>
      <trkpt lat="44.82613" lon="4.68018">
        <ele>155.39</ele>
        <time>2020-07-18T07:24:38Z</time>
      </trkpt>
      <trkpt lat="44.82616" lon="4.68016">
        <ele>154.91</ele>
        <time>2020-07-18T07:25:06Z</time>
      </trkpt>
      <trkpt lat="44.82614" lon="4.6802">
        <ele>155.87</ele>
        <time>2020-07-18T07:25:29Z</time>
      </trkpt>
      <trkpt lat="44.82614" lon="4.6802">
        <ele>157.31</ele>
        <time>2020-07-18T07:25:46Z</time>
      </trkpt>
      <trkpt lat="44.82612" lon="4.68021">
        <ele>157.31</ele>
        <time>2020-07-18T07:26:01Z</time>
      </trkpt>
      <trkpt lat="44.82621" lon="4.68028">
        <ele>160.68</ele>
        <time>2020-07-18T07:26:15Z</time>
      </trkpt>
      <trkpt lat="44.82621" lon="4.68029">
        <ele>160.2</ele>
        <time>2020-07-18T07:26:33Z</time>
      </trkpt>
      <trkpt lat="44.82623" lon="4.68035">
        <ele>160.68</ele>
        <time>2020-07-18T07:26:38Z</time>
      </trkpt>
      <trkpt lat="44.82632" lon="4.68041">
        <ele>163.08</ele>
        <time>2020-07-18T07:26:53Z</time>
      </trkpt>
      <trkpt lat="44.82633" lon="4.68038">
        <ele>160.68</ele>
        <time>2020-07-18T07:27:12Z</time>
      </trkpt>
      <trkpt lat="44.82635" lon="4.68039">
        <ele>158.75</ele>
        <time>2020-07-18T07:27:47Z</time>
      </trkpt>
      <trkpt lat="44.82635" lon="4.6804">
        <ele>158.75</ele>
        <time>2020-07-18T07:28:08Z</time>
      </trkpt>
      <trkpt lat="44.82637" lon="4.68036">
        <ele>160.2</ele>
        <time>2020-07-18T07:28:38Z</time>
      </trkpt>
      <trkpt lat="44.82635" lon="4.68037">
        <ele>157.31</ele>
        <time>2020-07-18T07:29:09Z</time>
      </trkpt>
      <trkpt lat="44.82634" lon="4.68037">
        <ele>152.51</ele>
        <time>2020-07-18T07:29:32Z</time>
      </trkpt>
      <trkpt lat="44.82636" lon="4.68038">
        <ele>151.54</ele>
        <time>2020-07-18T07:30:01Z</time>
      </trkpt>
      <trkpt lat="44.82638" lon="4.68046">
        <ele>154.43</ele>
        <time>2020-07-18T07:30:12Z</time>
      </trkpt>
      <trkpt lat="44.82643" lon="4.68045">
        <ele>158.27</ele>
        <time>2020-07-18T07:30:20Z</time>
      </trkpt>
      <trkpt lat="44.82646" lon="4.6804">
        <ele>158.75</ele>
        <time>2020-07-18T07:30:25Z</time>
      </trkpt>
      <trkpt lat="44.82647" lon="4.68035">
        <ele>159.24</ele>
        <time>2020-07-18T07:30:29Z</time>
      </trkpt>
      <trkpt lat="44.8265" lon="4.68033">
        <ele>160.68</ele>
        <time>2020-07-18T07:30:32Z</time>
      </trkpt>
      <trkpt lat="44.82654" lon="4.68026">
        <ele>161.16</ele>
        <time>2020-07-18T07:30:36Z</time>
      </trkpt>
      <trkpt lat="44.82651" lon="4.67976">
        <ele>156.35</ele>
        <time>2020-07-18T07:30:58Z</time>
      </trkpt>
      <trkpt lat="44.82644" lon="4.67957">
        <ele>153.47</ele>
        <time>2020-07-18T07:31:09Z</time>
      </trkpt>
      <trkpt lat="44.82642" lon="4.67944">
        <ele>153.47</ele>
        <time>2020-07-18T07:31:16Z</time>
      </trkpt>
      <trkpt lat="44.82638" lon="4.67934">
        <ele>152.51</ele>
        <time>2020-07-18T07:31:22Z</time>
      </trkpt>
      <trkpt lat="44.82631" lon="4.67933">
        <ele>152.51</ele>
        <time>2020-07-18T07:31:28Z</time>
      </trkpt>
      <trkpt lat="44.82627" lon="4.67968">
        <ele>155.39</ele>
        <time>2020-07-18T07:31:45Z</time>
      </trkpt>
      <trkpt lat="44.82624" lon="4.67984">
        <ele>154.43</ele>
        <time>2020-07-18T07:31:53Z</time>
      </trkpt>
      <trkpt lat="44.82614" lon="4.67999">
        <ele>152.99</ele>
        <time>2020-07-18T07:32:04Z</time>
      </trkpt>
      <trkpt lat="44.8258" lon="4.68001">
        <ele>157.79</ele>
        <time>2020-07-18T07:32:27Z</time>
      </trkpt>
      <trkpt lat="44.82559" lon="4.68015">
        <ele>162.6</ele>
        <time>2020-07-18T07:32:45Z</time>
      </trkpt>
      <trkpt lat="44.82543" lon="4.68051">
        <ele>167.89</ele>
        <time>2020-07-18T07:33:06Z</time>
      </trkpt>
      <trkpt lat="44.82534" lon="4.68088">
        <ele>172.69</ele>
        <time>2020-07-18T07:33:26Z</time>
      </trkpt>
      <trkpt lat="44.82528" lon="4.68119">
        <ele>174.14</ele>
        <time>2020-07-18T07:33:43Z</time>
      </trkpt>
      <trkpt lat="44.82527" lon="4.68146">
        <ele>176.54</ele>
        <time>2020-07-18T07:33:57Z</time>
      </trkpt>
      <trkpt lat="44.82507" lon="4.68162">
        <ele>177.02</ele>
        <time>2020-07-18T07:34:13Z</time>
      </trkpt>
      <trkpt lat="44.82486" lon="4.68168">
        <ele>178.94</ele>
        <time>2020-07-18T07:34:29Z</time>
      </trkpt>
      <trkpt lat="44.82483" lon="4.68173">
        <ele>179.42</ele>
        <time>2020-07-18T07:34:33Z</time>
      </trkpt>
      <trkpt lat="44.82477" lon="4.68185">
        <ele>181.35</ele>
        <time>2020-07-18T07:34:49Z</time>
      </trkpt>
      <trkpt lat="44.82475" lon="4.68187">
        <ele>181.35</ele>
        <time>2020-07-18T07:34:55Z</time>
      </trkpt>
      <trkpt lat="44.82453" lon="4.68175">
        <ele>183.75</ele>
        <time>2020-07-18T07:35:14Z</time>
      </trkpt>
      <trkpt lat="44.82459" lon="4.68158">
        <ele>185.67</ele>
        <time>2020-07-18T07:35:28Z</time>
      </trkpt>
      <trkpt lat="44.82485" lon="4.68157">
        <ele>188.56</ele>
        <time>2020-07-18T07:35:46Z</time>
      </trkpt>
      <trkpt lat="44.82501" lon="4.68133">
        <ele>183.75</ele>
        <time>2020-07-18T07:36:03Z</time>
      </trkpt>
      <trkpt lat="44.82494" lon="4.68095">
        <ele>179.42</ele>
        <time>2020-07-18T07:36:23Z</time>
      </trkpt>
      <trkpt lat="44.82501" lon="4.68054">
        <ele>180.38</ele>
        <time>2020-07-18T07:36:43Z</time>
      </trkpt>
      <trkpt lat="44.82502" lon="4.68016">
        <ele>179.9</ele>
        <time>2020-07-18T07:37:02Z</time>
      </trkpt>
      <trkpt lat="44.82493" lon="4.67975">
        <ele>179.9</ele>
        <time>2020-07-18T07:37:23Z</time>
      </trkpt>
      <trkpt lat="44.82486" lon="4.67947">
        <ele>181.35</ele>
        <time>2020-07-18T07:37:41Z</time>
      </trkpt>
      <trkpt lat="44.82485" lon="4.67947">
        <ele>181.83</ele>
        <time>2020-07-18T07:37:44Z</time>
      </trkpt>
      <trkpt lat="44.82483" lon="4.67934">
        <ele>182.31</ele>
        <time>2020-07-18T07:37:52Z</time>
      </trkpt>
      <trkpt lat="44.82485" lon="4.67897">
        <ele>186.15</ele>
        <time>2020-07-18T07:38:11Z</time>
      </trkpt>
      <trkpt lat="44.82488" lon="4.67861">
        <ele>185.19</ele>
        <time>2020-07-18T07:38:29Z</time>
      </trkpt>
      <trkpt lat="44.82494" lon="4.67818">
        <ele>186.15</ele>
        <time>2020-07-18T07:38:50Z</time>
      </trkpt>
      <trkpt lat="44.82488" lon="4.67777">
        <ele>186.15</ele>
        <time>2020-07-18T07:39:12Z</time>
      </trkpt>
      <trkpt lat="44.82475" lon="4.6776">
        <ele>186.15</ele>
        <time>2020-07-18T07:39:28Z</time>
      </trkpt>
      <trkpt lat="44.82456" lon="4.67739">
        <ele>184.23</ele>
        <time>2020-07-18T07:39:45Z</time>
      </trkpt>
      <trkpt lat="44.82461" lon="4.67713">
        <ele>187.11</ele>
        <time>2020-07-18T07:40:01Z</time>
      </trkpt>
      <trkpt lat="44.82472" lon="4.67674">
        <ele>190.96</ele>
        <time>2020-07-18T07:40:21Z</time>
      </trkpt>
      <trkpt lat="44.82473" lon="4.67646">
        <ele>190.48</ele>
        <time>2020-07-18T07:40:37Z</time>
      </trkpt>
      <trkpt lat="44.82464" lon="4.67638">
        <ele>190.96</ele>
        <time>2020-07-18T07:40:48Z</time>
      </trkpt>
      <trkpt lat="44.82443" lon="4.67619">
        <ele>193.36</ele>
        <time>2020-07-18T07:41:10Z</time>
      </trkpt>
      <trkpt lat="44.82422" lon="4.67604">
        <ele>196.25</ele>
        <time>2020-07-18T07:41:30Z</time>
      </trkpt>
      <trkpt lat="44.824" lon="4.67584">
        <ele>200.57</ele>
        <time>2020-07-18T07:41:53Z</time>
      </trkpt>
      <trkpt lat="44.82392" lon="4.67581">
        <ele>202.98</ele>
        <time>2020-07-18T07:42:01Z</time>
      </trkpt>
      <trkpt lat="44.82388" lon="4.67583">
        <ele>203.94</ele>
        <time>2020-07-18T07:42:05Z</time>
      </trkpt>
      <trkpt lat="44.82385" lon="4.67587">
        <ele>204.9</ele>
        <time>2020-07-18T07:42:09Z</time>
      </trkpt>
      <trkpt lat="44.8237" lon="4.67588">
        <ele>209.22</ele>
        <time>2020-07-18T07:42:26Z</time>
      </trkpt>
      <trkpt lat="44.82358" lon="4.67585">
        <ele>213.55</ele>
        <time>2020-07-18T07:42:43Z</time>
      </trkpt>
      <trkpt lat="44.82348" lon="4.67575">
        <ele>217.4</ele>
        <time>2020-07-18T07:43:03Z</time>
      </trkpt>
      <trkpt lat="44.82341" lon="4.67569">
        <ele>220.28</ele>
        <time>2020-07-18T07:43:18Z</time>
      </trkpt>
      <trkpt lat="44.82339" lon="4.67565">
        <ele>223.64</ele>
        <time>2020-07-18T07:43:33Z</time>
      </trkpt>
      <trkpt lat="44.82339" lon="4.67565">
        <ele>227.01</ele>
        <time>2020-07-18T07:43:50Z</time>
      </trkpt>
      <trkpt lat="44.82331" lon="4.67562">
        <ele>227.01</ele>
        <time>2020-07-18T07:44:06Z</time>
      </trkpt>
      <trkpt lat="44.82332" lon="4.67568">
        <ele>228.93</ele>
        <time>2020-07-18T07:44:19Z</time>
      </trkpt>
      <trkpt lat="44.82327" lon="4.67575">
        <ele>234.22</ele>
        <time>2020-07-18T07:44:34Z</time>
      </trkpt>
      <trkpt lat="44.8232" lon="4.67575">
        <ele>239.51</ele>
        <time>2020-07-18T07:44:51Z</time>
      </trkpt>
      <trkpt lat="44.82315" lon="4.67572">
        <ele>241.43</ele>
        <time>2020-07-18T07:45:06Z</time>
      </trkpt>
      <trkpt lat="44.82309" lon="4.67572">
        <ele>245.27</ele>
        <time>2020-07-18T07:45:21Z</time>
      </trkpt>
      <trkpt lat="44.82301" lon="4.6757">
        <ele>244.31</ele>
        <time>2020-07-18T07:45:36Z</time>
      </trkpt>
      <trkpt lat="44.82292" lon="4.67571">
        <ele>246.23</ele>
        <time>2020-07-18T07:45:51Z</time>
      </trkpt>
      <trkpt lat="44.82285" lon="4.67572">
        <ele>250.08</ele>
        <time>2020-07-18T07:46:06Z</time>
      </trkpt>
      <trkpt lat="44.82276" lon="4.67578">
        <ele>253.44</ele>
        <time>2020-07-18T07:46:20Z</time>
      </trkpt>
      <trkpt lat="44.82264" lon="4.67576">
        <ele>256.81</ele>
        <time>2020-07-18T07:46:38Z</time>
      </trkpt>
      <trkpt lat="44.82256" lon="4.67582">
        <ele>261.14</ele>
        <time>2020-07-18T07:46:53Z</time>
      </trkpt>
      <trkpt lat="44.82244" lon="4.67588">
        <ele>265.94</ele>
        <time>2020-07-18T07:47:08Z</time>
      </trkpt>
      <trkpt lat="44.82235" lon="4.67598">
        <ele>271.23</ele>
        <time>2020-07-18T07:47:23Z</time>
      </trkpt>
      <trkpt lat="44.82229" lon="4.67609">
        <ele>273.15</ele>
        <time>2020-07-18T07:47:39Z</time>
      </trkpt>
      <trkpt lat="44.82223" lon="4.67617">
        <ele>275.07</ele>
        <time>2020-07-18T07:47:55Z</time>
      </trkpt>
      <trkpt lat="44.82213" lon="4.67625">
        <ele>276.52</ele>
        <time>2020-07-18T07:48:10Z</time>
      </trkpt>
      <trkpt lat="44.82205" lon="4.67634">
        <ele>275.56</ele>
        <time>2020-07-18T07:48:25Z</time>
      </trkpt>
      <trkpt lat="44.822" lon="4.67637">
        <ele>276.04</ele>
        <time>2020-07-18T07:48:40Z</time>
      </trkpt>
      <trkpt lat="44.82201" lon="4.67648">
        <ele>280.84</ele>
        <time>2020-07-18T07:48:54Z</time>
      </trkpt>
      <trkpt lat="44.82194" lon="4.6766">
        <ele>284.69</ele>
        <time>2020-07-18T07:49:08Z</time>
      </trkpt>
      <trkpt lat="44.82188" lon="4.67668">
        <ele>289.49</ele>
        <time>2020-07-18T07:49:24Z</time>
      </trkpt>
      <trkpt lat="44.82184" lon="4.67668">
        <ele>291.9</ele>
        <time>2020-07-18T07:49:37Z</time>
      </trkpt>
      <trkpt lat="44.82179" lon="4.67673">
        <ele>292.86</ele>
        <time>2020-07-18T07:49:55Z</time>
      </trkpt>
      <trkpt lat="44.82174" lon="4.67677">
        <ele>296.22</ele>
        <time>2020-07-18T07:50:10Z</time>
      </trkpt>
      <trkpt lat="44.8217" lon="4.67684">
        <ele>299.59</ele>
        <time>2020-07-18T07:50:24Z</time>
      </trkpt>
      <trkpt lat="44.82162" lon="4.67694">
        <ele>303.43</ele>
        <time>2020-07-18T07:50:42Z</time>
      </trkpt>
      <trkpt lat="44.82155" lon="4.677">
        <ele>308.24</ele>
        <time>2020-07-18T07:50:58Z</time>
      </trkpt>
      <trkpt lat="44.82151" lon="4.67712">
        <ele>311.12</ele>
        <time>2020-07-18T07:51:13Z</time>
      </trkpt>
      <trkpt lat="44.82153" lon="4.67728">
        <ele>313.53</ele>
        <time>2020-07-18T07:51:27Z</time>
      </trkpt>
      <trkpt lat="44.82155" lon="4.6774">
        <ele>315.45</ele>
        <time>2020-07-18T07:51:41Z</time>
      </trkpt>
      <trkpt lat="44.8215" lon="4.67759">
        <ele>319.3</ele>
        <time>2020-07-18T07:51:56Z</time>
      </trkpt>
      <trkpt lat="44.82145" lon="4.67762">
        <ele>321.22</ele>
        <time>2020-07-18T07:52:00Z</time>
      </trkpt>
      <trkpt lat="44.82136" lon="4.67765">
        <ele>324.1</ele>
        <time>2020-07-18T07:52:10Z</time>
      </trkpt>
      <trkpt lat="44.82129" lon="4.67762">
        <ele>323.14</ele>
        <time>2020-07-18T07:52:15Z</time>
      </trkpt>
      <trkpt lat="44.82123" lon="4.67756">
        <ele>321.22</ele>
        <time>2020-07-18T07:52:22Z</time>
      </trkpt>
      <trkpt lat="44.8212" lon="4.67753">
        <ele>321.22</ele>
        <time>2020-07-18T07:52:25Z</time>
      </trkpt>
      <trkpt lat="44.82095" lon="4.67741">
        <ele>323.62</ele>
        <time>2020-07-18T07:52:43Z</time>
      </trkpt>
      <trkpt lat="44.82083" lon="4.67714">
        <ele>322.18</ele>
        <time>2020-07-18T07:53:00Z</time>
      </trkpt>
      <trkpt lat="44.82068" lon="4.67691">
        <ele>318.81</ele>
        <time>2020-07-18T07:53:17Z</time>
      </trkpt>
      <trkpt lat="44.82047" lon="4.67667">
        <ele>320.26</ele>
        <time>2020-07-18T07:53:36Z</time>
      </trkpt>
      <trkpt lat="44.82029" lon="4.67646">
        <ele>323.62</ele>
        <time>2020-07-18T07:53:54Z</time>
      </trkpt>
      <trkpt lat="44.8201" lon="4.67636">
        <ele>326.02</ele>
        <time>2020-07-18T07:54:10Z</time>
      </trkpt>
      <trkpt lat="44.81992" lon="4.67626">
        <ele>328.91</ele>
        <time>2020-07-18T07:54:24Z</time>
      </trkpt>
      <trkpt lat="44.82" lon="4.67641">
        <ele>330.35</ele>
        <time>2020-07-18T07:54:39Z</time>
      </trkpt>
      <trkpt lat="44.82001" lon="4.67641">
        <ele>330.83</ele>
        <time>2020-07-18T07:54:40Z</time>
      </trkpt>
      <trkpt lat="44.82017" lon="4.6765">
        <ele>333.23</ele>
        <time>2020-07-18T07:54:56Z</time>
      </trkpt>
      <trkpt lat="44.82028" lon="4.67682">
        <ele>337.08</ele>
        <time>2020-07-18T07:55:14Z</time>
      </trkpt>
      <trkpt lat="44.82044" lon="4.67702">
        <ele>339.48</ele>
        <time>2020-07-18T07:55:31Z</time>
      </trkpt>
      <trkpt lat="44.8205" lon="4.67732">
        <ele>340.44</ele>
        <time>2020-07-18T07:55:47Z</time>
      </trkpt>
      <trkpt lat="44.82049" lon="4.67736">
        <ele>340.44</ele>
        <time>2020-07-18T07:55:49Z</time>
      </trkpt>
      <trkpt lat="44.82046" lon="4.67747">
        <ele>341.41</ele>
        <time>2020-07-18T07:55:54Z</time>
      </trkpt>
      <trkpt lat="44.82047" lon="4.67779">
        <ele>343.81</ele>
        <time>2020-07-18T07:56:10Z</time>
      </trkpt>
      <trkpt lat="44.82053" lon="4.67784">
        <ele>344.29</ele>
        <time>2020-07-18T07:56:16Z</time>
      </trkpt>
      <trkpt lat="44.8206" lon="4.67807">
        <ele>343.81</ele>
        <time>2020-07-18T07:56:32Z</time>
      </trkpt>
      <trkpt lat="44.82055" lon="4.67846">
        <ele>344.29</ele>
        <time>2020-07-18T07:56:51Z</time>
      </trkpt>
      <trkpt lat="44.82044" lon="4.67876">
        <ele>344.77</ele>
        <time>2020-07-18T07:57:10Z</time>
      </trkpt>
      <trkpt lat="44.82025" lon="4.67902">
        <ele>348.13</ele>
        <time>2020-07-18T07:57:30Z</time>
      </trkpt>
      <trkpt lat="44.82009" lon="4.67919">
        <ele>351.02</ele>
        <time>2020-07-18T07:57:47Z</time>
      </trkpt>
      <trkpt lat="44.82005" lon="4.67929">
        <ele>351.98</ele>
        <time>2020-07-18T07:57:54Z</time>
      </trkpt>
      <trkpt lat="44.8199" lon="4.67963">
        <ele>357.75</ele>
        <time>2020-07-18T07:58:14Z</time>
      </trkpt>
      <trkpt lat="44.81979" lon="4.67987">
        <ele>357.75</ele>
        <time>2020-07-18T07:58:30Z</time>
      </trkpt>
      <trkpt lat="44.81979" lon="4.67988">
        <ele>357.75</ele>
        <time>2020-07-18T07:58:31Z</time>
      </trkpt>
      <trkpt lat="44.81962" lon="4.68013">
        <ele>357.27</ele>
        <time>2020-07-18T07:58:49Z</time>
      </trkpt>
      <trkpt lat="44.81946" lon="4.68048">
        <ele>364</ele>
        <time>2020-07-18T07:59:08Z</time>
      </trkpt>
      <trkpt lat="44.81943" lon="4.68048">
        <ele>360.63</ele>
        <time>2020-07-18T07:59:15Z</time>
      </trkpt>
      <trkpt lat="44.81949" lon="4.68016">
        <ele>361.59</ele>
        <time>2020-07-18T07:59:33Z</time>
      </trkpt>
      <trkpt lat="44.81963" lon="4.67991">
        <ele>360.15</ele>
        <time>2020-07-18T07:59:50Z</time>
      </trkpt>
      <trkpt lat="44.81971" lon="4.67967">
        <ele>360.63</ele>
        <time>2020-07-18T08:00:06Z</time>
      </trkpt>
      <trkpt lat="44.81978" lon="4.67939">
        <ele>363.52</ele>
        <time>2020-07-18T08:00:23Z</time>
      </trkpt>
      <trkpt lat="44.81989" lon="4.67907">
        <ele>365.44</ele>
        <time>2020-07-18T08:00:39Z</time>
      </trkpt>
      <trkpt lat="44.81991" lon="4.67887">
        <ele>362.55</ele>
        <time>2020-07-18T08:00:53Z</time>
      </trkpt>
      <trkpt lat="44.81993" lon="4.67883">
        <ele>357.27</ele>
        <time>2020-07-18T08:01:11Z</time>
      </trkpt>
      <trkpt lat="44.8199" lon="4.67863">
        <ele>355.83</ele>
        <time>2020-07-18T08:01:27Z</time>
      </trkpt>
      <trkpt lat="44.81986" lon="4.67832">
        <ele>353.9</ele>
        <time>2020-07-18T08:01:46Z</time>
      </trkpt>
      <trkpt lat="44.81983" lon="4.67805">
        <ele>352.94</ele>
        <time>2020-07-18T08:02:01Z</time>
      </trkpt>
      <trkpt lat="44.81981" lon="4.67783">
        <ele>352.94</ele>
        <time>2020-07-18T08:02:13Z</time>
      </trkpt>
      <trkpt lat="44.81981" lon="4.67776">
        <ele>352.46</ele>
        <time>2020-07-18T08:02:17Z</time>
      </trkpt>
      <trkpt lat="44.81969" lon="4.67754">
        <ele>350.54</ele>
        <time>2020-07-18T08:02:33Z</time>
      </trkpt>
      <trkpt lat="44.81962" lon="4.67744">
        <ele>348.62</ele>
        <time>2020-07-18T08:02:46Z</time>
      </trkpt>
      <trkpt lat="44.81954" lon="4.67731">
        <ele>346.69</ele>
        <time>2020-07-18T08:02:57Z</time>
      </trkpt>
      <trkpt lat="44.81951" lon="4.6772">
        <ele>347.17</ele>
        <time>2020-07-18T08:03:03Z</time>
      </trkpt>
      <trkpt lat="44.81946" lon="4.67711">
        <ele>348.62</ele>
        <time>2020-07-18T08:03:10Z</time>
      </trkpt>
      <trkpt lat="44.81934" lon="4.67699">
        <ele>351.5</ele>
        <time>2020-07-18T08:03:25Z</time>
      </trkpt>
      <trkpt lat="44.81925" lon="4.67692">
        <ele>355.83</ele>
        <time>2020-07-18T08:03:38Z</time>
      </trkpt>
      <trkpt lat="44.81908" lon="4.67686">
        <ele>361.59</ele>
        <time>2020-07-18T08:03:52Z</time>
      </trkpt>
      <trkpt lat="44.8189" lon="4.67676">
        <ele>367.84</ele>
        <time>2020-07-18T08:04:09Z</time>
      </trkpt>
      <trkpt lat="44.81867" lon="4.67666">
        <ele>375.53</ele>
        <time>2020-07-18T08:04:27Z</time>
      </trkpt>
      <trkpt lat="44.81858" lon="4.67655">
        <ele>383.22</ele>
        <time>2020-07-18T08:04:39Z</time>
      </trkpt>
      <trkpt lat="44.81842" lon="4.67642">
        <ele>394.76</ele>
        <time>2020-07-18T08:04:54Z</time>
      </trkpt>
      <trkpt lat="44.81835" lon="4.6763">
        <ele>407.26</ele>
        <time>2020-07-18T08:05:09Z</time>
      </trkpt>
      <trkpt lat="44.81819" lon="4.67616">
        <ele>409.66</ele>
        <time>2020-07-18T08:05:23Z</time>
      </trkpt>
      <trkpt lat="44.818" lon="4.67599">
        <ele>407.74</ele>
        <time>2020-07-18T08:05:37Z</time>
      </trkpt>
      <trkpt lat="44.81787" lon="4.67588">
        <ele>406.29</ele>
        <time>2020-07-18T08:05:51Z</time>
      </trkpt>
      <trkpt lat="44.81779" lon="4.67581">
        <ele>406.29</ele>
        <time>2020-07-18T08:05:57Z</time>
      </trkpt>
      <trkpt lat="44.81766" lon="4.67566">
        <ele>403.89</ele>
        <time>2020-07-18T08:06:11Z</time>
      </trkpt>
      <trkpt lat="44.81762" lon="4.67564">
        <ele>403.89</ele>
        <time>2020-07-18T08:06:14Z</time>
      </trkpt>
      <trkpt lat="44.81747" lon="4.67546">
        <ele>401.01</ele>
        <time>2020-07-18T08:06:29Z</time>
      </trkpt>
      <trkpt lat="44.81744" lon="4.67528">
        <ele>401.01</ele>
        <time>2020-07-18T08:06:44Z</time>
      </trkpt>
      <trkpt lat="44.81742" lon="4.67506">
        <ele>402.45</ele>
        <time>2020-07-18T08:06:53Z</time>
      </trkpt>
      <trkpt lat="44.81736" lon="4.67465">
        <ele>410.14</ele>
        <time>2020-07-18T08:07:08Z</time>
      </trkpt>
      <trkpt lat="44.8173" lon="4.67426">
        <ele>410.62</ele>
        <time>2020-07-18T08:07:24Z</time>
      </trkpt>
      <trkpt lat="44.81722" lon="4.67386">
        <ele>401.97</ele>
        <time>2020-07-18T08:07:42Z</time>
      </trkpt>
      <trkpt lat="44.81711" lon="4.67358">
        <ele>384.66</ele>
        <time>2020-07-18T08:07:57Z</time>
      </trkpt>
      <trkpt lat="44.81703" lon="4.67322">
        <ele>380.34</ele>
        <time>2020-07-18T08:08:13Z</time>
      </trkpt>
      <trkpt lat="44.81703" lon="4.67283">
        <ele>382.74</ele>
        <time>2020-07-18T08:08:31Z</time>
      </trkpt>
      <trkpt lat="44.81705" lon="4.67247">
        <ele>383.22</ele>
        <time>2020-07-18T08:08:48Z</time>
      </trkpt>
      <trkpt lat="44.81709" lon="4.6721">
        <ele>383.7</ele>
        <time>2020-07-18T08:09:06Z</time>
      </trkpt>
      <trkpt lat="44.81703" lon="4.67177">
        <ele>382.74</ele>
        <time>2020-07-18T08:09:24Z</time>
      </trkpt>
      <trkpt lat="44.81706" lon="4.67139">
        <ele>380.82</ele>
        <time>2020-07-18T08:09:41Z</time>
      </trkpt>
      <trkpt lat="44.81705" lon="4.67112">
        <ele>382.74</ele>
        <time>2020-07-18T08:09:57Z</time>
      </trkpt>
      <trkpt lat="44.81704" lon="4.67101">
        <ele>383.22</ele>
        <time>2020-07-18T08:10:03Z</time>
      </trkpt>
      <trkpt lat="44.81702" lon="4.67084">
        <ele>385.15</ele>
        <time>2020-07-18T08:10:17Z</time>
      </trkpt>
      <trkpt lat="44.81702" lon="4.67073">
        <ele>388.03</ele>
        <time>2020-07-18T08:10:28Z</time>
      </trkpt>
      <trkpt lat="44.817" lon="4.67059">
        <ele>395.24</ele>
        <time>2020-07-18T08:10:46Z</time>
      </trkpt>
      <trkpt lat="44.81697" lon="4.67039">
        <ele>400.05</ele>
        <time>2020-07-18T08:11:00Z</time>
      </trkpt>
      <trkpt lat="44.81694" lon="4.6702">
        <ele>401.97</ele>
        <time>2020-07-18T08:11:12Z</time>
      </trkpt>
      <trkpt lat="44.81692" lon="4.67012">
        <ele>402.45</ele>
        <time>2020-07-18T08:11:16Z</time>
      </trkpt>
      <trkpt lat="44.81689" lon="4.66969">
        <ele>400.53</ele>
        <time>2020-07-18T08:11:33Z</time>
      </trkpt>
      <trkpt lat="44.81691" lon="4.66914">
        <ele>395.24</ele>
        <time>2020-07-18T08:11:51Z</time>
      </trkpt>
      <trkpt lat="44.81691" lon="4.66912">
        <ele>395.24</ele>
        <time>2020-07-18T08:11:52Z</time>
      </trkpt>
      <trkpt lat="44.81689" lon="4.66885">
        <ele>395.24</ele>
        <time>2020-07-18T08:12:09Z</time>
      </trkpt>
      <trkpt lat="44.81683" lon="4.66849">
        <ele>399.08</ele>
        <time>2020-07-18T08:12:27Z</time>
      </trkpt>
      <trkpt lat="44.8168" lon="4.6682">
        <ele>401.01</ele>
        <time>2020-07-18T08:12:44Z</time>
      </trkpt>
      <trkpt lat="44.81671" lon="4.66792">
        <ele>402.45</ele>
        <time>2020-07-18T08:12:59Z</time>
      </trkpt>
      <trkpt lat="44.81667" lon="4.66756">
        <ele>405.81</ele>
        <time>2020-07-18T08:13:18Z</time>
      </trkpt>
      <trkpt lat="44.81659" lon="4.66732">
        <ele>407.74</ele>
        <time>2020-07-18T08:13:34Z</time>
      </trkpt>
      <trkpt lat="44.81653" lon="4.66713">
        <ele>410.62</ele>
        <time>2020-07-18T08:13:49Z</time>
      </trkpt>
      <trkpt lat="44.81646" lon="4.66689">
        <ele>415.43</ele>
        <time>2020-07-18T08:14:05Z</time>
      </trkpt>
      <trkpt lat="44.81638" lon="4.66679">
        <ele>419.27</ele>
        <time>2020-07-18T08:14:14Z</time>
      </trkpt>
      <trkpt lat="44.81631" lon="4.66662">
        <ele>425.52</ele>
        <time>2020-07-18T08:14:28Z</time>
      </trkpt>
      <trkpt lat="44.81629" lon="4.66639">
        <ele>426</ele>
        <time>2020-07-18T08:14:42Z</time>
      </trkpt>
      <trkpt lat="44.81631" lon="4.66606">
        <ele>425.52</ele>
        <time>2020-07-18T08:14:57Z</time>
      </trkpt>
      <trkpt lat="44.81631" lon="4.66602">
        <ele>425.52</ele>
        <time>2020-07-18T08:14:59Z</time>
      </trkpt>
      <trkpt lat="44.81622" lon="4.66565">
        <ele>426.48</ele>
        <time>2020-07-18T08:15:17Z</time>
      </trkpt>
      <trkpt lat="44.81621" lon="4.66556">
        <ele>425.52</ele>
        <time>2020-07-18T08:15:23Z</time>
      </trkpt>
      <trkpt lat="44.81616" lon="4.66544">
        <ele>425.04</ele>
        <time>2020-07-18T08:15:28Z</time>
      </trkpt>
      <trkpt lat="44.81602" lon="4.66507">
        <ele>421.19</ele>
        <time>2020-07-18T08:15:46Z</time>
      </trkpt>
      <trkpt lat="44.81588" lon="4.66476">
        <ele>416.39</ele>
        <time>2020-07-18T08:16:02Z</time>
      </trkpt>
      <trkpt lat="44.81569" lon="4.66451">
        <ele>413.98</ele>
        <time>2020-07-18T08:16:20Z</time>
      </trkpt>
      <trkpt lat="44.81543" lon="4.66425">
        <ele>413.5</ele>
        <time>2020-07-18T08:16:41Z</time>
      </trkpt>
      <trkpt lat="44.81523" lon="4.66406">
        <ele>411.58</ele>
        <time>2020-07-18T08:16:57Z</time>
      </trkpt>
      <trkpt lat="44.81504" lon="4.66387">
        <ele>412.06</ele>
        <time>2020-07-18T08:17:14Z</time>
      </trkpt>
      <trkpt lat="44.8148" lon="4.66372">
        <ele>416.39</ele>
        <time>2020-07-18T08:17:32Z</time>
      </trkpt>
      <trkpt lat="44.81459" lon="4.66362">
        <ele>418.31</ele>
        <time>2020-07-18T08:17:49Z</time>
      </trkpt>
      <trkpt lat="44.81436" lon="4.66356">
        <ele>423.12</ele>
        <time>2020-07-18T08:18:07Z</time>
      </trkpt>
      <trkpt lat="44.81416" lon="4.66346">
        <ele>425.52</ele>
        <time>2020-07-18T08:18:23Z</time>
      </trkpt>
      <trkpt lat="44.81415" lon="4.66344">
        <ele>425.52</ele>
        <time>2020-07-18T08:18:24Z</time>
      </trkpt>
      <trkpt lat="44.81413" lon="4.66341">
        <ele>425.52</ele>
        <time>2020-07-18T08:18:26Z</time>
      </trkpt>
      <trkpt lat="44.8141" lon="4.66324">
        <ele>424.08</ele>
        <time>2020-07-18T08:18:34Z</time>
      </trkpt>
      <trkpt lat="44.81405" lon="4.66292">
        <ele>424.08</ele>
        <time>2020-07-18T08:18:50Z</time>
      </trkpt>
      <trkpt lat="44.81398" lon="4.66263">
        <ele>426.48</ele>
        <time>2020-07-18T08:19:06Z</time>
      </trkpt>
      <trkpt lat="44.81381" lon="4.66235">
        <ele>429.85</ele>
        <time>2020-07-18T08:19:25Z</time>
      </trkpt>
      <trkpt lat="44.81358" lon="4.66212">
        <ele>427.92</ele>
        <time>2020-07-18T08:19:45Z</time>
      </trkpt>
      <trkpt lat="44.81349" lon="4.66204">
        <ele>428.4</ele>
        <time>2020-07-18T08:19:53Z</time>
      </trkpt>
      <trkpt lat="44.81344" lon="4.66201">
        <ele>428.4</ele>
        <time>2020-07-18T08:19:58Z</time>
      </trkpt>
      <trkpt lat="44.81319" lon="4.66187">
        <ele>431.77</ele>
        <time>2020-07-18T08:20:18Z</time>
      </trkpt>
      <trkpt lat="44.81299" lon="4.6618">
        <ele>435.61</ele>
        <time>2020-07-18T08:20:34Z</time>
      </trkpt>
      <trkpt lat="44.81274" lon="4.66171">
        <ele>436.58</ele>
        <time>2020-07-18T08:20:54Z</time>
      </trkpt>
      <trkpt lat="44.81253" lon="4.66165">
        <ele>439.46</ele>
        <time>2020-07-18T08:21:11Z</time>
      </trkpt>
      <trkpt lat="44.81234" lon="4.6616">
        <ele>440.9</ele>
        <time>2020-07-18T08:21:26Z</time>
      </trkpt>
      <trkpt lat="44.81225" lon="4.66151">
        <ele>441.86</ele>
        <time>2020-07-18T08:21:34Z</time>
      </trkpt>
      <trkpt lat="44.81216" lon="4.66126">
        <ele>443.31</ele>
        <time>2020-07-18T08:21:49Z</time>
      </trkpt>
      <trkpt lat="44.81215" lon="4.66103">
        <ele>450.03</ele>
        <time>2020-07-18T08:22:06Z</time>
      </trkpt>
      <trkpt lat="44.81215" lon="4.66076">
        <ele>456.76</ele>
        <time>2020-07-18T08:22:21Z</time>
      </trkpt>
      <trkpt lat="44.81215" lon="4.66065">
        <ele>462.53</ele>
        <time>2020-07-18T08:22:33Z</time>
      </trkpt>
      <trkpt lat="44.81212" lon="4.66047">
        <ele>467.82</ele>
        <time>2020-07-18T08:22:46Z</time>
      </trkpt>
      <trkpt lat="44.81218" lon="4.66029">
        <ele>474.07</ele>
        <time>2020-07-18T08:23:01Z</time>
      </trkpt>
      <trkpt lat="44.81222" lon="4.66009">
        <ele>477.91</ele>
        <time>2020-07-18T08:23:18Z</time>
      </trkpt>
      <trkpt lat="44.81224" lon="4.65986">
        <ele>481.76</ele>
        <time>2020-07-18T08:23:34Z</time>
      </trkpt>
      <trkpt lat="44.81231" lon="4.65956">
        <ele>475.51</ele>
        <time>2020-07-18T08:23:47Z</time>
      </trkpt>
      <trkpt lat="44.81229" lon="4.65923">
        <ele>470.7</ele>
        <time>2020-07-18T08:24:01Z</time>
      </trkpt>
      <trkpt lat="44.81227" lon="4.65908">
        <ele>467.34</ele>
        <time>2020-07-18T08:24:16Z</time>
      </trkpt>
      <trkpt lat="44.81228" lon="4.6586">
        <ele>460.13</ele>
        <time>2020-07-18T08:24:26Z</time>
      </trkpt>
      <trkpt lat="44.81231" lon="4.65843">
        <ele>449.07</ele>
        <time>2020-07-18T08:24:50Z</time>
      </trkpt>
      <trkpt lat="44.81233" lon="4.6583">
        <ele>442.34</ele>
        <time>2020-07-18T08:25:05Z</time>
      </trkpt>
      <trkpt lat="44.81234" lon="4.65825">
        <ele>440.42</ele>
        <time>2020-07-18T08:25:12Z</time>
      </trkpt>
      <trkpt lat="44.8123" lon="4.65809">
        <ele>441.38</ele>
        <time>2020-07-18T08:25:26Z</time>
      </trkpt>
      <trkpt lat="44.81223" lon="4.65795">
        <ele>447.15</ele>
        <time>2020-07-18T08:25:41Z</time>
      </trkpt>
      <trkpt lat="44.81213" lon="4.65777">
        <ele>453.88</ele>
        <time>2020-07-18T08:25:57Z</time>
      </trkpt>
      <trkpt lat="44.81204" lon="4.65766">
        <ele>461.09</ele>
        <time>2020-07-18T08:26:10Z</time>
      </trkpt>
      <trkpt lat="44.81191" lon="4.65752">
        <ele>467.82</ele>
        <time>2020-07-18T08:26:25Z</time>
      </trkpt>
      <trkpt lat="44.81182" lon="4.65728">
        <ele>470.22</ele>
        <time>2020-07-18T08:26:41Z</time>
      </trkpt>
      <trkpt lat="44.81172" lon="4.65708">
        <ele>470.22</ele>
        <time>2020-07-18T08:26:57Z</time>
      </trkpt>
      <trkpt lat="44.81163" lon="4.65698">
        <ele>471.66</ele>
        <time>2020-07-18T08:27:10Z</time>
      </trkpt>
      <trkpt lat="44.8117" lon="4.65676">
        <ele>465.42</ele>
        <time>2020-07-18T08:27:24Z</time>
      </trkpt>
      <trkpt lat="44.81182" lon="4.65689">
        <ele>470.22</ele>
        <time>2020-07-18T08:27:41Z</time>
      </trkpt>
      <trkpt lat="44.81189" lon="4.65703">
        <ele>480.32</ele>
        <time>2020-07-18T08:27:58Z</time>
      </trkpt>
      <trkpt lat="44.81199" lon="4.6571">
        <ele>486.56</ele>
        <time>2020-07-18T08:28:13Z</time>
      </trkpt>
      <trkpt lat="44.81204" lon="4.6571">
        <ele>485.6</ele>
        <time>2020-07-18T08:28:15Z</time>
      </trkpt>
      <trkpt lat="44.81201" lon="4.65696">
        <ele>488.49</ele>
        <time>2020-07-18T08:28:29Z</time>
      </trkpt>
      <trkpt lat="44.81191" lon="4.65678">
        <ele>486.56</ele>
        <time>2020-07-18T08:28:44Z</time>
      </trkpt>
      <trkpt lat="44.8118" lon="4.65658">
        <ele>487.05</ele>
        <time>2020-07-18T08:28:59Z</time>
      </trkpt>
      <trkpt lat="44.8118" lon="4.65658">
        <ele>487.05</ele>
        <time>2020-07-18T08:29:00Z</time>
      </trkpt>
      <trkpt lat="44.8117" lon="4.65635">
        <ele>483.68</ele>
        <time>2020-07-18T08:29:18Z</time>
      </trkpt>
      <trkpt lat="44.81169" lon="4.65628">
        <ele>483.2</ele>
        <time>2020-07-18T08:29:30Z</time>
      </trkpt>
      <trkpt lat="44.81167" lon="4.6562">
        <ele>479.84</ele>
        <time>2020-07-18T08:29:49Z</time>
      </trkpt>
      <trkpt lat="44.81163" lon="4.65612">
        <ele>475.51</ele>
        <time>2020-07-18T08:30:06Z</time>
      </trkpt>
      <trkpt lat="44.81162" lon="4.65608">
        <ele>476.47</ele>
        <time>2020-07-18T08:30:18Z</time>
      </trkpt>
      <trkpt lat="44.81152" lon="4.65597">
        <ele>475.99</ele>
        <time>2020-07-18T08:30:31Z</time>
      </trkpt>
      <trkpt lat="44.81136" lon="4.65583">
        <ele>478.87</ele>
        <time>2020-07-18T08:30:48Z</time>
      </trkpt>
      <trkpt lat="44.81118" lon="4.65568">
        <ele>481.76</ele>
        <time>2020-07-18T08:31:06Z</time>
      </trkpt>
      <trkpt lat="44.81105" lon="4.65559">
        <ele>486.08</ele>
        <time>2020-07-18T08:31:20Z</time>
      </trkpt>
      <trkpt lat="44.81104" lon="4.65558">
        <ele>486.08</ele>
        <time>2020-07-18T08:31:21Z</time>
      </trkpt>
      <trkpt lat="44.81092" lon="4.65548">
        <ele>488.01</ele>
        <time>2020-07-18T08:31:31Z</time>
      </trkpt>
      <trkpt lat="44.81074" lon="4.65534">
        <ele>489.45</ele>
        <time>2020-07-18T08:31:48Z</time>
      </trkpt>
      <trkpt lat="44.81071" lon="4.65533">
        <ele>489.93</ele>
        <time>2020-07-18T08:31:51Z</time>
      </trkpt>
      <trkpt lat="44.81067" lon="4.65518">
        <ele>493.77</ele>
        <time>2020-07-18T08:32:01Z</time>
      </trkpt>
      <trkpt lat="44.81073" lon="4.65515">
        <ele>496.66</ele>
        <time>2020-07-18T08:32:09Z</time>
      </trkpt>
      <trkpt lat="44.81085" lon="4.65519">
        <ele>501.95</ele>
        <time>2020-07-18T08:32:26Z</time>
      </trkpt>
      <trkpt lat="44.81103" lon="4.65518">
        <ele>507.23</ele>
        <time>2020-07-18T08:32:41Z</time>
      </trkpt>
      <trkpt lat="44.81121" lon="4.6552">
        <ele>510.6</ele>
        <time>2020-07-18T08:32:57Z</time>
      </trkpt>
      <trkpt lat="44.81126" lon="4.65522">
        <ele>513</ele>
        <time>2020-07-18T08:33:12Z</time>
      </trkpt>
      <trkpt lat="44.81137" lon="4.65522">
        <ele>515.88</ele>
        <time>2020-07-18T08:33:26Z</time>
      </trkpt>
      <trkpt lat="44.81143" lon="4.65518">
        <ele>517.33</ele>
        <time>2020-07-18T08:33:38Z</time>
      </trkpt>
      <trkpt lat="44.81134" lon="4.65511">
        <ele>519.25</ele>
        <time>2020-07-18T08:33:54Z</time>
      </trkpt>
      <trkpt lat="44.81132" lon="4.65509">
        <ele>519.25</ele>
        <time>2020-07-18T08:33:56Z</time>
      </trkpt>
      <trkpt lat="44.8112" lon="4.65497">
        <ele>519.25</ele>
        <time>2020-07-18T08:34:11Z</time>
      </trkpt>
      <trkpt lat="44.81104" lon="4.65484">
        <ele>519.73</ele>
        <time>2020-07-18T08:34:25Z</time>
      </trkpt>
      <trkpt lat="44.81091" lon="4.65472">
        <ele>522.61</ele>
        <time>2020-07-18T08:34:39Z</time>
      </trkpt>
      <trkpt lat="44.81075" lon="4.65456">
        <ele>525.98</ele>
        <time>2020-07-18T08:34:56Z</time>
      </trkpt>
      <trkpt lat="44.8106" lon="4.65448">
        <ele>528.38</ele>
        <time>2020-07-18T08:35:10Z</time>
      </trkpt>
      <trkpt lat="44.81048" lon="4.65439">
        <ele>532.71</ele>
        <time>2020-07-18T08:35:23Z</time>
      </trkpt>
      <trkpt lat="44.81035" lon="4.65433">
        <ele>537.51</ele>
        <time>2020-07-18T08:35:38Z</time>
      </trkpt>
      <trkpt lat="44.81025" lon="4.6543">
        <ele>546.65</ele>
        <time>2020-07-18T08:35:53Z</time>
      </trkpt>
      <trkpt lat="44.81015" lon="4.65428">
        <ele>557.7</ele>
        <time>2020-07-18T08:36:08Z</time>
      </trkpt>
      <trkpt lat="44.80998" lon="4.65421">
        <ele>562.99</ele>
        <time>2020-07-18T08:36:24Z</time>
      </trkpt>
      <trkpt lat="44.80988" lon="4.65415">
        <ele>562.03</ele>
        <time>2020-07-18T08:36:31Z</time>
      </trkpt>
      <trkpt lat="44.8098" lon="4.65406">
        <ele>559.62</ele>
        <time>2020-07-18T08:36:38Z</time>
      </trkpt>
      <trkpt lat="44.80971" lon="4.65403">
        <ele>553.86</ele>
        <time>2020-07-18T08:36:41Z</time>
      </trkpt>
      <trkpt lat="44.80952" lon="4.65374">
        <ele>541.84</ele>
        <time>2020-07-18T08:36:59Z</time>
      </trkpt>
      <trkpt lat="44.80948" lon="4.6535">
        <ele>541.84</ele>
        <time>2020-07-18T08:37:15Z</time>
      </trkpt>
      <trkpt lat="44.80943" lon="4.65326">
        <ele>547.13</ele>
        <time>2020-07-18T08:37:32Z</time>
      </trkpt>
      <trkpt lat="44.80941" lon="4.65302">
        <ele>553.86</ele>
        <time>2020-07-18T08:37:48Z</time>
      </trkpt>
      <trkpt lat="44.80942" lon="4.65275">
        <ele>559.14</ele>
        <time>2020-07-18T08:38:03Z</time>
      </trkpt>
      <trkpt lat="44.80944" lon="4.65254">
        <ele>562.51</ele>
        <time>2020-07-18T08:38:15Z</time>
      </trkpt>
      <trkpt lat="44.80954" lon="4.65232">
        <ele>562.03</ele>
        <time>2020-07-18T08:38:26Z</time>
      </trkpt>
      <trkpt lat="44.80958" lon="4.65231">
        <ele>561.55</ele>
        <time>2020-07-18T08:38:29Z</time>
      </trkpt>
      <trkpt lat="44.80963" lon="4.65233">
        <ele>561.07</ele>
        <time>2020-07-18T08:38:34Z</time>
      </trkpt>
      <trkpt lat="44.80981" lon="4.65246">
        <ele>560.59</ele>
        <time>2020-07-18T08:38:51Z</time>
      </trkpt>
      <trkpt lat="44.80996" lon="4.65256">
        <ele>563.95</ele>
        <time>2020-07-18T08:39:07Z</time>
      </trkpt>
      <trkpt lat="44.81006" lon="4.65267">
        <ele>571.16</ele>
        <time>2020-07-18T08:39:22Z</time>
      </trkpt>
      <trkpt lat="44.81008" lon="4.65273">
        <ele>580.77</ele>
        <time>2020-07-18T08:39:35Z</time>
      </trkpt>
      <trkpt lat="44.81016" lon="4.65306">
        <ele>570.68</ele>
        <time>2020-07-18T08:39:52Z</time>
      </trkpt>
      <trkpt lat="44.81012" lon="4.65305">
        <ele>570.2</ele>
        <time>2020-07-18T08:40:04Z</time>
      </trkpt>
      <trkpt lat="44.81011" lon="4.65304">
        <ele>567.8</ele>
        <time>2020-07-18T08:40:17Z</time>
      </trkpt>
      <trkpt lat="44.81005" lon="4.65303">
        <ele>570.68</ele>
        <time>2020-07-18T08:40:29Z</time>
      </trkpt>
      <trkpt lat="44.80996" lon="4.65296">
        <ele>571.16</ele>
        <time>2020-07-18T08:40:46Z</time>
      </trkpt>
      <trkpt lat="44.80987" lon="4.6529">
        <ele>571.64</ele>
        <time>2020-07-18T08:41:00Z</time>
      </trkpt>
      <trkpt lat="44.80985" lon="4.65277">
        <ele>569.72</ele>
        <time>2020-07-18T08:41:12Z</time>
      </trkpt>
      <trkpt lat="44.80991" lon="4.65277">
        <ele>567.8</ele>
        <time>2020-07-18T08:41:31Z</time>
      </trkpt>
      <trkpt lat="44.80994" lon="4.65276">
        <ele>562.03</ele>
        <time>2020-07-18T08:42:05Z</time>
      </trkpt>
      <trkpt lat="44.80994" lon="4.65273">
        <ele>560.11</ele>
        <time>2020-07-18T08:42:35Z</time>
      </trkpt>
      <trkpt lat="44.80992" lon="4.6526">
        <ele>559.62</ele>
        <time>2020-07-18T08:42:49Z</time>
      </trkpt>
      <trkpt lat="44.80991" lon="4.65259">
        <ele>560.11</ele>
        <time>2020-07-18T08:42:51Z</time>
      </trkpt>
      <trkpt lat="44.80975" lon="4.65245">
        <ele>565.39</ele>
        <time>2020-07-18T08:43:08Z</time>
      </trkpt>
      <trkpt lat="44.80973" lon="4.65244">
        <ele>566.83</ele>
        <time>2020-07-18T08:43:10Z</time>
      </trkpt>
      <trkpt lat="44.80966" lon="4.65245">
        <ele>569.24</ele>
        <time>2020-07-18T08:43:16Z</time>
      </trkpt>
      <trkpt lat="44.80964" lon="4.65246">
        <ele>570.2</ele>
        <time>2020-07-18T08:43:27Z</time>
      </trkpt>
      <trkpt lat="44.80964" lon="4.65249">
        <ele>570.2</ele>
        <time>2020-07-18T08:43:30Z</time>
      </trkpt>
      <trkpt lat="44.80961" lon="4.65253">
        <ele>570.68</ele>
        <time>2020-07-18T08:43:35Z</time>
      </trkpt>
      <trkpt lat="44.80946" lon="4.65263">
        <ele>572.12</ele>
        <time>2020-07-18T08:43:45Z</time>
      </trkpt>
      <trkpt lat="44.80943" lon="4.65267">
        <ele>571.64</ele>
        <time>2020-07-18T08:43:49Z</time>
      </trkpt>
      <trkpt lat="44.80944" lon="4.65305">
        <ele>569.72</ele>
        <time>2020-07-18T08:44:07Z</time>
      </trkpt>
      <trkpt lat="44.80945" lon="4.65339">
        <ele>566.83</ele>
        <time>2020-07-18T08:44:22Z</time>
      </trkpt>
      <trkpt lat="44.80947" lon="4.65367">
        <ele>565.39</ele>
        <time>2020-07-18T08:44:35Z</time>
      </trkpt>
      <trkpt lat="44.80949" lon="4.65369">
        <ele>565.39</ele>
        <time>2020-07-18T08:44:37Z</time>
      </trkpt>
      <trkpt lat="44.80957" lon="4.65385">
        <ele>562.03</ele>
        <time>2020-07-18T08:44:44Z</time>
      </trkpt>
      <trkpt lat="44.80978" lon="4.65416">
        <ele>547.13</ele>
        <time>2020-07-18T08:45:00Z</time>
      </trkpt>
      <trkpt lat="44.81" lon="4.65423">
        <ele>537.51</ele>
        <time>2020-07-18T08:45:14Z</time>
      </trkpt>
      <trkpt lat="44.81019" lon="4.65426">
        <ele>529.82</ele>
        <time>2020-07-18T08:45:28Z</time>
      </trkpt>
      <trkpt lat="44.81033" lon="4.65428">
        <ele>520.69</ele>
        <time>2020-07-18T08:45:42Z</time>
      </trkpt>
      <trkpt lat="44.81041" lon="4.65426">
        <ele>520.21</ele>
        <time>2020-07-18T08:46:06Z</time>
      </trkpt>
      <trkpt lat="44.81051" lon="4.65431">
        <ele>517.33</ele>
        <time>2020-07-18T08:46:16Z</time>
      </trkpt>
      <trkpt lat="44.81059" lon="4.6544">
        <ele>513</ele>
        <time>2020-07-18T08:46:30Z</time>
      </trkpt>
      <trkpt lat="44.81073" lon="4.65454">
        <ele>511.56</ele>
        <time>2020-07-18T08:46:45Z</time>
      </trkpt>
      <trkpt lat="44.81084" lon="4.65466">
        <ele>512.04</ele>
        <time>2020-07-18T08:46:58Z</time>
      </trkpt>
      <trkpt lat="44.81096" lon="4.65474">
        <ele>510.12</ele>
        <time>2020-07-18T08:47:09Z</time>
      </trkpt>
      <trkpt lat="44.8111" lon="4.6549">
        <ele>511.08</ele>
        <time>2020-07-18T08:47:27Z</time>
      </trkpt>
      <trkpt lat="44.81126" lon="4.65506">
        <ele>518.29</ele>
        <time>2020-07-18T08:47:42Z</time>
      </trkpt>
      <trkpt lat="44.81136" lon="4.65524">
        <ele>520.69</ele>
        <time>2020-07-18T08:47:57Z</time>
      </trkpt>
      <trkpt lat="44.81137" lon="4.65527">
        <ele>521.17</ele>
        <time>2020-07-18T08:48:10Z</time>
      </trkpt>
      <trkpt lat="44.81134" lon="4.65527">
        <ele>525.98</ele>
        <time>2020-07-18T08:48:19Z</time>
      </trkpt>
      <trkpt lat="44.81125" lon="4.65529">
        <ele>531.75</ele>
        <time>2020-07-18T08:48:28Z</time>
      </trkpt>
      <trkpt lat="44.81112" lon="4.6553">
        <ele>541.84</ele>
        <time>2020-07-18T08:48:42Z</time>
      </trkpt>
      <trkpt lat="44.81103" lon="4.65531">
        <ele>545.69</ele>
        <time>2020-07-18T08:48:51Z</time>
      </trkpt>
      <trkpt lat="44.81072" lon="4.65533">
        <ele>530.79</ele>
        <time>2020-07-18T08:49:04Z</time>
      </trkpt>
      <trkpt lat="44.81071" lon="4.65558">
        <ele>525.98</ele>
        <time>2020-07-18T08:49:19Z</time>
      </trkpt>
      <trkpt lat="44.81084" lon="4.65578">
        <ele>532.23</ele>
        <time>2020-07-18T08:49:34Z</time>
      </trkpt>
      <trkpt lat="44.81086" lon="4.65579">
        <ele>532.71</ele>
        <time>2020-07-18T08:49:35Z</time>
      </trkpt>
      <trkpt lat="44.81112" lon="4.65597">
        <ele>519.25</ele>
        <time>2020-07-18T08:49:52Z</time>
      </trkpt>
      <trkpt lat="44.81124" lon="4.65606">
        <ele>512.52</ele>
        <time>2020-07-18T08:50:01Z</time>
      </trkpt>
      <trkpt lat="44.81137" lon="4.65617">
        <ele>508.67</ele>
        <time>2020-07-18T08:50:10Z</time>
      </trkpt>
      <trkpt lat="44.81144" lon="4.65625">
        <ele>508.19</ele>
        <time>2020-07-18T08:50:16Z</time>
      </trkpt>
      <trkpt lat="44.81148" lon="4.65634">
        <ele>510.12</ele>
        <time>2020-07-18T08:50:22Z</time>
      </trkpt>
      <trkpt lat="44.8116" lon="4.65661">
        <ele>517.33</ele>
        <time>2020-07-18T08:50:38Z</time>
      </trkpt>
      <trkpt lat="44.81166" lon="4.65671">
        <ele>517.81</ele>
        <time>2020-07-18T08:50:44Z</time>
      </trkpt>
      <trkpt lat="44.81187" lon="4.65696">
        <ele>511.56</ele>
        <time>2020-07-18T08:51:02Z</time>
      </trkpt>
      <trkpt lat="44.81195" lon="4.65711">
        <ele>501.95</ele>
        <time>2020-07-18T08:51:16Z</time>
      </trkpt>
      <trkpt lat="44.81195" lon="4.65706">
        <ele>500.5</ele>
        <time>2020-07-18T08:51:30Z</time>
      </trkpt>
      <trkpt lat="44.81197" lon="4.65693">
        <ele>502.91</ele>
        <time>2020-07-18T08:51:44Z</time>
      </trkpt>
      <trkpt lat="44.81191" lon="4.65691">
        <ele>502.91</ele>
        <time>2020-07-18T08:51:59Z</time>
      </trkpt>
      <trkpt lat="44.81176" lon="4.65695">
        <ele>500.98</ele>
        <time>2020-07-18T08:52:11Z</time>
      </trkpt>
      <trkpt lat="44.81175" lon="4.65704">
        <ele>502.43</ele>
        <time>2020-07-18T08:52:20Z</time>
      </trkpt>
      <trkpt lat="44.81172" lon="4.65726">
        <ele>500.5</ele>
        <time>2020-07-18T08:52:31Z</time>
      </trkpt>
      <trkpt lat="44.81173" lon="4.65736">
        <ele>497.62</ele>
        <time>2020-07-18T08:52:34Z</time>
      </trkpt>
      <trkpt lat="44.81181" lon="4.65753">
        <ele>488.49</ele>
        <time>2020-07-18T08:52:48Z</time>
      </trkpt>
      <trkpt lat="44.81182" lon="4.65763">
        <ele>489.93</ele>
        <time>2020-07-18T08:53:06Z</time>
      </trkpt>
      <trkpt lat="44.81185" lon="4.65769">
        <ele>487.05</ele>
        <time>2020-07-18T08:53:18Z</time>
      </trkpt>
      <trkpt lat="44.81193" lon="4.65773">
        <ele>472.63</ele>
        <time>2020-07-18T08:53:30Z</time>
      </trkpt>
      <trkpt lat="44.81183" lon="4.65763">
        <ele>467.34</ele>
        <time>2020-07-18T08:53:42Z</time>
      </trkpt>
      <trkpt lat="44.81172" lon="4.65749">
        <ele>463.97</ele>
        <time>2020-07-18T08:53:55Z</time>
      </trkpt>
      <trkpt lat="44.81155" lon="4.65736">
        <ele>460.61</ele>
        <time>2020-07-18T08:54:08Z</time>
      </trkpt>
      <trkpt lat="44.81135" lon="4.65719">
        <ele>458.69</ele>
        <time>2020-07-18T08:54:23Z</time>
      </trkpt>
      <trkpt lat="44.81133" lon="4.65718">
        <ele>458.21</ele>
        <time>2020-07-18T08:54:25Z</time>
      </trkpt>
      <trkpt lat="44.81124" lon="4.65694">
        <ele>452.92</ele>
        <time>2020-07-18T08:54:38Z</time>
      </trkpt>
      <trkpt lat="44.81116" lon="4.65682">
        <ele>453.4</ele>
        <time>2020-07-18T08:54:51Z</time>
      </trkpt>
      <trkpt lat="44.81103" lon="4.65671">
        <ele>456.28</ele>
        <time>2020-07-18T08:55:05Z</time>
      </trkpt>
      <trkpt lat="44.81094" lon="4.65665">
        <ele>459.17</ele>
        <time>2020-07-18T08:55:17Z</time>
      </trkpt>
      <trkpt lat="44.81075" lon="4.65653">
        <ele>461.57</ele>
        <time>2020-07-18T08:55:34Z</time>
      </trkpt>
      <trkpt lat="44.8106" lon="4.65645">
        <ele>463.97</ele>
        <time>2020-07-18T08:55:47Z</time>
      </trkpt>
      <trkpt lat="44.81066" lon="4.65639">
        <ele>462.53</ele>
        <time>2020-07-18T08:56:06Z</time>
      </trkpt>
      <trkpt lat="44.81053" lon="4.65628">
        <ele>463.97</ele>
        <time>2020-07-18T08:56:19Z</time>
      </trkpt>
      <trkpt lat="44.81049" lon="4.65621">
        <ele>470.7</ele>
        <time>2020-07-18T08:56:30Z</time>
      </trkpt>
      <trkpt lat="44.81038" lon="4.65623">
        <ele>476.47</ele>
        <time>2020-07-18T08:56:41Z</time>
      </trkpt>
      <trkpt lat="44.81026" lon="4.65626">
        <ele>479.84</ele>
        <time>2020-07-18T08:56:51Z</time>
      </trkpt>
      <trkpt lat="44.8101" lon="4.65625">
        <ele>483.68</ele>
        <time>2020-07-18T08:57:05Z</time>
      </trkpt>
      <trkpt lat="44.80995" lon="4.65617">
        <ele>485.12</ele>
        <time>2020-07-18T08:57:21Z</time>
      </trkpt>
      <trkpt lat="44.80975" lon="4.6561">
        <ele>476.47</ele>
        <time>2020-07-18T08:57:37Z</time>
      </trkpt>
      <trkpt lat="44.80957" lon="4.65613">
        <ele>475.51</ele>
        <time>2020-07-18T08:57:58Z</time>
      </trkpt>
      <trkpt lat="44.80949" lon="4.65601">
        <ele>469.26</ele>
        <time>2020-07-18T08:58:11Z</time>
      </trkpt>
      <trkpt lat="44.8094" lon="4.65587">
        <ele>464.45</ele>
        <time>2020-07-18T08:58:28Z</time>
      </trkpt>
      <trkpt lat="44.8093" lon="4.65577">
        <ele>464.45</ele>
        <time>2020-07-18T08:58:42Z</time>
      </trkpt>
      <trkpt lat="44.8092" lon="4.65576">
        <ele>466.38</ele>
        <time>2020-07-18T08:58:54Z</time>
      </trkpt>
      <trkpt lat="44.80911" lon="4.65564">
        <ele>468.3</ele>
        <time>2020-07-18T08:59:07Z</time>
      </trkpt>
      <trkpt lat="44.8089" lon="4.65551">
        <ele>465.9</ele>
        <time>2020-07-18T08:59:21Z</time>
      </trkpt>
      <trkpt lat="44.80873" lon="4.65538">
        <ele>466.38</ele>
        <time>2020-07-18T08:59:36Z</time>
      </trkpt>
      <trkpt lat="44.80862" lon="4.65536">
        <ele>474.07</ele>
        <time>2020-07-18T08:59:50Z</time>
      </trkpt>
      <trkpt lat="44.8086" lon="4.65535">
        <ele>475.03</ele>
        <time>2020-07-18T08:59:52Z</time>
      </trkpt>
      <trkpt lat="44.80839" lon="4.65523">
        <ele>468.3</ele>
        <time>2020-07-18T09:00:07Z</time>
      </trkpt>
      <trkpt lat="44.80827" lon="4.65514">
        <ele>463.49</ele>
        <time>2020-07-18T09:00:18Z</time>
      </trkpt>
      <trkpt lat="44.80815" lon="4.65503">
        <ele>461.09</ele>
        <time>2020-07-18T09:00:32Z</time>
      </trkpt>
      <trkpt lat="44.80807" lon="4.65496">
        <ele>463.97</ele>
        <time>2020-07-18T09:00:41Z</time>
      </trkpt>
      <trkpt lat="44.80795" lon="4.65481">
        <ele>468.3</ele>
        <time>2020-07-18T09:00:52Z</time>
      </trkpt>
      <trkpt lat="44.80783" lon="4.65465">
        <ele>474.07</ele>
        <time>2020-07-18T09:01:06Z</time>
      </trkpt>
      <trkpt lat="44.80781" lon="4.6546">
        <ele>474.07</ele>
        <time>2020-07-18T09:01:09Z</time>
      </trkpt>
      <trkpt lat="44.80779" lon="4.65436">
        <ele>475.99</ele>
        <time>2020-07-18T09:01:24Z</time>
      </trkpt>
      <trkpt lat="44.80773" lon="4.65414">
        <ele>475.99</ele>
        <time>2020-07-18T09:01:39Z</time>
      </trkpt>
      <trkpt lat="44.80772" lon="4.65403">
        <ele>475.99</ele>
        <time>2020-07-18T09:01:44Z</time>
      </trkpt>
      <trkpt lat="44.80771" lon="4.65397">
        <ele>475.99</ele>
        <time>2020-07-18T09:01:47Z</time>
      </trkpt>
      <trkpt lat="44.80764" lon="4.65375">
        <ele>474.55</ele>
        <time>2020-07-18T09:02:01Z</time>
      </trkpt>
      <trkpt lat="44.80756" lon="4.65365">
        <ele>474.07</ele>
        <time>2020-07-18T09:02:14Z</time>
      </trkpt>
      <trkpt lat="44.8075" lon="4.65349">
        <ele>475.51</ele>
        <time>2020-07-18T09:02:26Z</time>
      </trkpt>
      <trkpt lat="44.80744" lon="4.65329">
        <ele>476.47</ele>
        <time>2020-07-18T09:02:38Z</time>
      </trkpt>
      <trkpt lat="44.80741" lon="4.65313">
        <ele>479.35</ele>
        <time>2020-07-18T09:02:46Z</time>
      </trkpt>
      <trkpt lat="44.80739" lon="4.65284">
        <ele>479.84</ele>
        <time>2020-07-18T09:03:00Z</time>
      </trkpt>
      <trkpt lat="44.80744" lon="4.65242">
        <ele>475.51</ele>
        <time>2020-07-18T09:03:14Z</time>
      </trkpt>
      <trkpt lat="44.80742" lon="4.65202">
        <ele>471.66</ele>
        <time>2020-07-18T09:03:28Z</time>
      </trkpt>
      <trkpt lat="44.80743" lon="4.65181">
        <ele>473.11</ele>
        <time>2020-07-18T09:03:43Z</time>
      </trkpt>
      <trkpt lat="44.80742" lon="4.65162">
        <ele>475.51</ele>
        <time>2020-07-18T09:03:58Z</time>
      </trkpt>
      <trkpt lat="44.80742" lon="4.6516">
        <ele>475.99</ele>
        <time>2020-07-18T09:03:59Z</time>
      </trkpt>
      <trkpt lat="44.80737" lon="4.65148">
        <ele>479.84</ele>
        <time>2020-07-18T09:04:13Z</time>
      </trkpt>
      <trkpt lat="44.80728" lon="4.65139">
        <ele>480.32</ele>
        <time>2020-07-18T09:04:27Z</time>
      </trkpt>
      <trkpt lat="44.80721" lon="4.65117">
        <ele>481.76</ele>
        <time>2020-07-18T09:04:39Z</time>
      </trkpt>
      <trkpt lat="44.80717" lon="4.65102">
        <ele>481.28</ele>
        <time>2020-07-18T09:04:49Z</time>
      </trkpt>
      <trkpt lat="44.80705" lon="4.65075">
        <ele>481.28</ele>
        <time>2020-07-18T09:05:04Z</time>
      </trkpt>
      <trkpt lat="44.807" lon="4.65065">
        <ele>480.8</ele>
        <time>2020-07-18T09:05:10Z</time>
      </trkpt>
      <trkpt lat="44.80692" lon="4.65037">
        <ele>479.35</ele>
        <time>2020-07-18T09:05:24Z</time>
      </trkpt>
      <trkpt lat="44.80689" lon="4.65013">
        <ele>477.43</ele>
        <time>2020-07-18T09:05:37Z</time>
      </trkpt>
      <trkpt lat="44.80678" lon="4.64999">
        <ele>478.39</ele>
        <time>2020-07-18T09:05:50Z</time>
      </trkpt>
      <trkpt lat="44.80677" lon="4.6498">
        <ele>483.2</ele>
        <time>2020-07-18T09:06:04Z</time>
      </trkpt>
      <trkpt lat="44.80676" lon="4.64972">
        <ele>483.68</ele>
        <time>2020-07-18T09:06:09Z</time>
      </trkpt>
      <trkpt lat="44.80679" lon="4.64963">
        <ele>483.68</ele>
        <time>2020-07-18T09:06:15Z</time>
      </trkpt>
      <trkpt lat="44.80687" lon="4.64948">
        <ele>483.2</ele>
        <time>2020-07-18T09:06:26Z</time>
      </trkpt>
      <trkpt lat="44.80686" lon="4.64926">
        <ele>483.68</ele>
        <time>2020-07-18T09:06:32Z</time>
      </trkpt>
      <trkpt lat="44.80685" lon="4.64884">
        <ele>478.87</ele>
        <time>2020-07-18T09:06:48Z</time>
      </trkpt>
      <trkpt lat="44.80684" lon="4.64858">
        <ele>478.87</ele>
        <time>2020-07-18T09:07:03Z</time>
      </trkpt>
      <trkpt lat="44.80682" lon="4.64832">
        <ele>478.87</ele>
        <time>2020-07-18T09:07:18Z</time>
      </trkpt>
      <trkpt lat="44.80672" lon="4.64811">
        <ele>476.95</ele>
        <time>2020-07-18T09:07:33Z</time>
      </trkpt>
      <trkpt lat="44.80669" lon="4.64799">
        <ele>475.99</ele>
        <time>2020-07-18T09:07:45Z</time>
      </trkpt>
      <trkpt lat="44.80661" lon="4.64787">
        <ele>474.55</ele>
        <time>2020-07-18T09:07:59Z</time>
      </trkpt>
      <trkpt lat="44.80657" lon="4.64762">
        <ele>472.63</ele>
        <time>2020-07-18T09:08:13Z</time>
      </trkpt>
      <trkpt lat="44.8066" lon="4.64735">
        <ele>470.22</ele>
        <time>2020-07-18T09:08:31Z</time>
      </trkpt>
      <trkpt lat="44.80657" lon="4.64707">
        <ele>468.3</ele>
        <time>2020-07-18T09:08:44Z</time>
      </trkpt>
      <trkpt lat="44.80657" lon="4.647">
        <ele>467.82</ele>
        <time>2020-07-18T09:08:47Z</time>
      </trkpt>
      <trkpt lat="44.80648" lon="4.64671">
        <ele>462.53</ele>
        <time>2020-07-18T09:09:02Z</time>
      </trkpt>
      <trkpt lat="44.8064" lon="4.64653">
        <ele>461.09</ele>
        <time>2020-07-18T09:09:16Z</time>
      </trkpt>
      <trkpt lat="44.80638" lon="4.64624">
        <ele>455.8</ele>
        <time>2020-07-18T09:09:28Z</time>
      </trkpt>
      <trkpt lat="44.80622" lon="4.64602">
        <ele>453.4</ele>
        <time>2020-07-18T09:09:42Z</time>
      </trkpt>
      <trkpt lat="44.80611" lon="4.64589">
        <ele>449.55</ele>
        <time>2020-07-18T09:09:56Z</time>
      </trkpt>
      <trkpt lat="44.80597" lon="4.64576">
        <ele>445.23</ele>
        <time>2020-07-18T09:10:12Z</time>
      </trkpt>
      <trkpt lat="44.80595" lon="4.64568">
        <ele>444.27</ele>
        <time>2020-07-18T09:10:26Z</time>
      </trkpt>
      <trkpt lat="44.80593" lon="4.64562">
        <ele>443.79</ele>
        <time>2020-07-18T09:10:31Z</time>
      </trkpt>
      <trkpt lat="44.80591" lon="4.64544">
        <ele>441.86</ele>
        <time>2020-07-18T09:10:44Z</time>
      </trkpt>
      <trkpt lat="44.80588" lon="4.64532">
        <ele>440.9</ele>
        <time>2020-07-18T09:10:54Z</time>
      </trkpt>
      <trkpt lat="44.80588" lon="4.64519">
        <ele>436.58</ele>
        <time>2020-07-18T09:11:00Z</time>
      </trkpt>
      <trkpt lat="44.80589" lon="4.64516">
        <ele>435.13</ele>
        <time>2020-07-18T09:11:01Z</time>
      </trkpt>
      <trkpt lat="44.80591" lon="4.64483">
        <ele>423.12</ele>
        <time>2020-07-18T09:11:15Z</time>
      </trkpt>
      <trkpt lat="44.80591" lon="4.64476">
        <ele>420.23</ele>
        <time>2020-07-18T09:11:18Z</time>
      </trkpt>
      <trkpt lat="44.80591" lon="4.64474">
        <ele>419.75</ele>
        <time>2020-07-18T09:11:19Z</time>
      </trkpt>
      <trkpt lat="44.8059" lon="4.64465">
        <ele>421.19</ele>
        <time>2020-07-18T09:11:27Z</time>
      </trkpt>
      <trkpt lat="44.80598" lon="4.64444">
        <ele>422.16</ele>
        <time>2020-07-18T09:11:41Z</time>
      </trkpt>
      <trkpt lat="44.80598" lon="4.64443">
        <ele>421.68</ele>
        <time>2020-07-18T09:11:42Z</time>
      </trkpt>
      <trkpt lat="44.80585" lon="4.64438">
        <ele>420.71</ele>
        <time>2020-07-18T09:11:51Z</time>
      </trkpt>
      <trkpt lat="44.80584" lon="4.64437">
        <ele>420.71</ele>
        <time>2020-07-18T09:11:52Z</time>
      </trkpt>
      <trkpt lat="44.80569" lon="4.64436">
        <ele>420.23</ele>
        <time>2020-07-18T09:12:06Z</time>
      </trkpt>
      <trkpt lat="44.80563" lon="4.64433">
        <ele>416.87</ele>
        <time>2020-07-18T09:12:12Z</time>
      </trkpt>
      <trkpt lat="44.80564" lon="4.64432">
        <ele>416.39</ele>
        <time>2020-07-18T09:12:13Z</time>
      </trkpt>
      <trkpt lat="44.80564" lon="4.64431">
        <ele>416.39</ele>
        <time>2020-07-18T09:12:14Z</time>
      </trkpt>
      <trkpt lat="44.80573" lon="4.64433">
        <ele>416.39</ele>
        <time>2020-07-18T09:12:27Z</time>
      </trkpt>
      <trkpt lat="44.80574" lon="4.64434">
        <ele>415.91</ele>
        <time>2020-07-18T09:12:28Z</time>
      </trkpt>
      <trkpt lat="44.80576" lon="4.64433">
        <ele>415.91</ele>
        <time>2020-07-18T09:12:29Z</time>
      </trkpt>
      <trkpt lat="44.80577" lon="4.64433">
        <ele>415.43</ele>
        <time>2020-07-18T09:12:30Z</time>
      </trkpt>
      <trkpt lat="44.80578" lon="4.64433">
        <ele>415.43</ele>
        <time>2020-07-18T09:12:31Z</time>
      </trkpt>
      <trkpt lat="44.80599" lon="4.64446">
        <ele>412.06</ele>
        <time>2020-07-18T09:12:46Z</time>
      </trkpt>
      <trkpt lat="44.80614" lon="4.64468">
        <ele>407.26</ele>
        <time>2020-07-18T09:13:02Z</time>
      </trkpt>
      <trkpt lat="44.80614" lon="4.6447">
        <ele>407.26</ele>
        <time>2020-07-18T09:13:03Z</time>
      </trkpt>
      <trkpt lat="44.80615" lon="4.64472">
        <ele>406.77</ele>
        <time>2020-07-18T09:13:04Z</time>
      </trkpt>
      <trkpt lat="44.80616" lon="4.64475">
        <ele>406.77</ele>
        <time>2020-07-18T09:13:05Z</time>
      </trkpt>
      <trkpt lat="44.80616" lon="4.64476">
        <ele>406.29</ele>
        <time>2020-07-18T09:13:06Z</time>
      </trkpt>
      <trkpt lat="44.80617" lon="4.64479">
        <ele>406.29</ele>
        <time>2020-07-18T09:13:07Z</time>
      </trkpt>
      <trkpt lat="44.80626" lon="4.64505">
        <ele>404.85</ele>
        <time>2020-07-18T09:13:22Z</time>
      </trkpt>
      <trkpt lat="44.80637" lon="4.64521">
        <ele>404.37</ele>
        <time>2020-07-18T09:13:35Z</time>
      </trkpt>
      <trkpt lat="44.80641" lon="4.64523">
        <ele>402.93</ele>
        <time>2020-07-18T09:13:39Z</time>
      </trkpt>
      <trkpt lat="44.80659" lon="4.64532">
        <ele>393.8</ele>
        <time>2020-07-18T09:13:54Z</time>
      </trkpt>
      <trkpt lat="44.80668" lon="4.64532">
        <ele>390.43</ele>
        <time>2020-07-18T09:14:07Z</time>
      </trkpt>
      <trkpt lat="44.80664" lon="4.64517">
        <ele>392.84</ele>
        <time>2020-07-18T09:14:21Z</time>
      </trkpt>
      <trkpt lat="44.80658" lon="4.64502">
        <ele>397.64</ele>
        <time>2020-07-18T09:14:32Z</time>
      </trkpt>
      <trkpt lat="44.80656" lon="4.64476">
        <ele>401.97</ele>
        <time>2020-07-18T09:14:48Z</time>
      </trkpt>
      <trkpt lat="44.80663" lon="4.64463">
        <ele>404.85</ele>
        <time>2020-07-18T09:14:59Z</time>
      </trkpt>
      <trkpt lat="44.8067" lon="4.64464">
        <ele>407.26</ele>
        <time>2020-07-18T09:15:13Z</time>
      </trkpt>
      <trkpt lat="44.80682" lon="4.64464">
        <ele>407.74</ele>
        <time>2020-07-18T09:15:28Z</time>
      </trkpt>
      <trkpt lat="44.80684" lon="4.64465">
        <ele>408.22</ele>
        <time>2020-07-18T09:15:30Z</time>
      </trkpt>
      <trkpt lat="44.80703" lon="4.64467">
        <ele>405.33</ele>
        <time>2020-07-18T09:15:45Z</time>
      </trkpt>
      <trkpt lat="44.80717" lon="4.64479">
        <ele>395.24</ele>
        <time>2020-07-18T09:15:59Z</time>
      </trkpt>
      <trkpt lat="44.80727" lon="4.64486">
        <ele>390.91</ele>
        <time>2020-07-18T09:16:08Z</time>
      </trkpt>
      <trkpt lat="44.80744" lon="4.64489">
        <ele>387.07</ele>
        <time>2020-07-18T09:16:21Z</time>
      </trkpt>
      <trkpt lat="44.80755" lon="4.64487">
        <ele>384.66</ele>
        <time>2020-07-18T09:16:30Z</time>
      </trkpt>
      <trkpt lat="44.80771" lon="4.64493">
        <ele>382.26</ele>
        <time>2020-07-18T09:16:43Z</time>
      </trkpt>
      <trkpt lat="44.80774" lon="4.64496">
        <ele>381.78</ele>
        <time>2020-07-18T09:16:45Z</time>
      </trkpt>
      <trkpt lat="44.80785" lon="4.64512">
        <ele>380.34</ele>
        <time>2020-07-18T09:16:57Z</time>
      </trkpt>
      <trkpt lat="44.80788" lon="4.64513">
        <ele>380.34</ele>
        <time>2020-07-18T09:16:59Z</time>
      </trkpt>
      <trkpt lat="44.8079" lon="4.64523">
        <ele>378.9</ele>
        <time>2020-07-18T09:17:11Z</time>
      </trkpt>
      <trkpt lat="44.80791" lon="4.64526">
        <ele>378.9</ele>
        <time>2020-07-18T09:17:16Z</time>
      </trkpt>
      <trkpt lat="44.80795" lon="4.64516">
        <ele>378.42</ele>
        <time>2020-07-18T09:17:22Z</time>
      </trkpt>
      <trkpt lat="44.80808" lon="4.64505">
        <ele>370.24</ele>
        <time>2020-07-18T09:17:36Z</time>
      </trkpt>
      <trkpt lat="44.80821" lon="4.6449">
        <ele>363.04</ele>
        <time>2020-07-18T09:17:41Z</time>
      </trkpt>
      <trkpt lat="44.80823" lon="4.64487">
        <ele>357.27</ele>
        <time>2020-07-18T09:17:47Z</time>
      </trkpt>
      <trkpt lat="44.8082" lon="4.64473">
        <ele>359.67</ele>
        <time>2020-07-18T09:17:59Z</time>
      </trkpt>
      <trkpt lat="44.80806" lon="4.64452">
        <ele>367.36</ele>
        <time>2020-07-18T09:18:15Z</time>
      </trkpt>
      <trkpt lat="44.80798" lon="4.64427">
        <ele>366.4</ele>
        <time>2020-07-18T09:18:28Z</time>
      </trkpt>
      <trkpt lat="44.80789" lon="4.64399">
        <ele>369.28</ele>
        <time>2020-07-18T09:18:42Z</time>
      </trkpt>
      <trkpt lat="44.80784" lon="4.64378">
        <ele>371.21</ele>
        <time>2020-07-18T09:18:54Z</time>
      </trkpt>
      <trkpt lat="44.80784" lon="4.64359">
        <ele>371.69</ele>
        <time>2020-07-18T09:19:09Z</time>
      </trkpt>
      <trkpt lat="44.80789" lon="4.64337">
        <ele>355.34</ele>
        <time>2020-07-18T09:19:24Z</time>
      </trkpt>
      <trkpt lat="44.80797" lon="4.6433">
        <ele>351.02</ele>
        <time>2020-07-18T09:19:32Z</time>
      </trkpt>
      <trkpt lat="44.80813" lon="4.64313">
        <ele>343.81</ele>
        <time>2020-07-18T09:19:39Z</time>
      </trkpt>
      <trkpt lat="44.80818" lon="4.64305">
        <ele>340.44</ele>
        <time>2020-07-18T09:19:43Z</time>
      </trkpt>
      <trkpt lat="44.8082" lon="4.64301">
        <ele>339</ele>
        <time>2020-07-18T09:19:45Z</time>
      </trkpt>
      <trkpt lat="44.80842" lon="4.64274">
        <ele>329.87</ele>
        <time>2020-07-18T09:20:00Z</time>
      </trkpt>
      <trkpt lat="44.80853" lon="4.64253">
        <ele>325.06</ele>
        <time>2020-07-18T09:20:10Z</time>
      </trkpt>
      <trkpt lat="44.80858" lon="4.64245">
        <ele>323.62</ele>
        <time>2020-07-18T09:20:15Z</time>
      </trkpt>
      <trkpt lat="44.8086" lon="4.64247">
        <ele>324.58</ele>
        <time>2020-07-18T09:20:20Z</time>
      </trkpt>
      <trkpt lat="44.80863" lon="4.64247">
        <ele>320.26</ele>
        <time>2020-07-18T09:20:26Z</time>
      </trkpt>
      <trkpt lat="44.80862" lon="4.64255">
        <ele>318.33</ele>
        <time>2020-07-18T09:20:32Z</time>
      </trkpt>
      <trkpt lat="44.80856" lon="4.64279">
        <ele>316.89</ele>
        <time>2020-07-18T09:20:42Z</time>
      </trkpt>
      <trkpt lat="44.80847" lon="4.64299">
        <ele>316.41</ele>
        <time>2020-07-18T09:20:53Z</time>
      </trkpt>
      <trkpt lat="44.80847" lon="4.64303">
        <ele>315.93</ele>
        <time>2020-07-18T09:20:56Z</time>
      </trkpt>
      <trkpt lat="44.80856" lon="4.64318">
        <ele>316.41</ele>
        <time>2020-07-18T09:21:08Z</time>
      </trkpt>
      <trkpt lat="44.80859" lon="4.64335">
        <ele>314.49</ele>
        <time>2020-07-18T09:21:18Z</time>
      </trkpt>
      <trkpt lat="44.80865" lon="4.64357">
        <ele>312.57</ele>
        <time>2020-07-18T09:21:31Z</time>
      </trkpt>
      <trkpt lat="44.80865" lon="4.64359">
        <ele>312.57</ele>
        <time>2020-07-18T09:21:32Z</time>
      </trkpt>
      <trkpt lat="44.80879" lon="4.64377">
        <ele>311.6</ele>
        <time>2020-07-18T09:21:43Z</time>
      </trkpt>
      <trkpt lat="44.80889" lon="4.64404">
        <ele>305.84</ele>
        <time>2020-07-18T09:21:58Z</time>
      </trkpt>
      <trkpt lat="44.80891" lon="4.64412">
        <ele>303.43</ele>
        <time>2020-07-18T09:22:07Z</time>
      </trkpt>
      <trkpt lat="44.80902" lon="4.64427">
        <ele>302.47</ele>
        <time>2020-07-18T09:22:18Z</time>
      </trkpt>
      <trkpt lat="44.80924" lon="4.6444">
        <ele>299.59</ele>
        <time>2020-07-18T09:22:32Z</time>
      </trkpt>
      <trkpt lat="44.80945" lon="4.64446">
        <ele>296.22</ele>
        <time>2020-07-18T09:22:47Z</time>
      </trkpt>
      <trkpt lat="44.80959" lon="4.64449">
        <ele>293.34</ele>
        <time>2020-07-18T09:22:59Z</time>
      </trkpt>
      <trkpt lat="44.80974" lon="4.64453">
        <ele>293.34</ele>
        <time>2020-07-18T09:23:10Z</time>
      </trkpt>
      <trkpt lat="44.80999" lon="4.64462">
        <ele>289.97</ele>
        <time>2020-07-18T09:23:26Z</time>
      </trkpt>
      <trkpt lat="44.81027" lon="4.64469">
        <ele>287.57</ele>
        <time>2020-07-18T09:23:41Z</time>
      </trkpt>
      <trkpt lat="44.81055" lon="4.64479">
        <ele>287.57</ele>
        <time>2020-07-18T09:23:56Z</time>
      </trkpt>
      <trkpt lat="44.81077" lon="4.64484">
        <ele>286.61</ele>
        <time>2020-07-18T09:24:09Z</time>
      </trkpt>
      <trkpt lat="44.8109" lon="4.64471">
        <ele>290.46</ele>
        <time>2020-07-18T09:24:25Z</time>
      </trkpt>
      <trkpt lat="44.81095" lon="4.64462">
        <ele>285.65</ele>
        <time>2020-07-18T09:24:37Z</time>
      </trkpt>
      <trkpt lat="44.81114" lon="4.64453">
        <ele>279.4</ele>
        <time>2020-07-18T09:24:50Z</time>
      </trkpt>
      <trkpt lat="44.81119" lon="4.64451">
        <ele>278.44</ele>
        <time>2020-07-18T09:24:54Z</time>
      </trkpt>
      <trkpt lat="44.81129" lon="4.64441">
        <ele>277</ele>
        <time>2020-07-18T09:25:02Z</time>
      </trkpt>
      <trkpt lat="44.81144" lon="4.64433">
        <ele>275.07</ele>
        <time>2020-07-18T09:25:14Z</time>
      </trkpt>
      <trkpt lat="44.81145" lon="4.64432">
        <ele>275.56</ele>
        <time>2020-07-18T09:25:15Z</time>
      </trkpt>
      <trkpt lat="44.81149" lon="4.64429">
        <ele>277</ele>
        <time>2020-07-18T09:25:19Z</time>
      </trkpt>
      <trkpt lat="44.81159" lon="4.64421">
        <ele>275.56</ele>
        <time>2020-07-18T09:25:28Z</time>
      </trkpt>
      <trkpt lat="44.81172" lon="4.64422">
        <ele>275.56</ele>
        <time>2020-07-18T09:25:39Z</time>
      </trkpt>
      <trkpt lat="44.81207" lon="4.64416">
        <ele>270.27</ele>
        <time>2020-07-18T09:25:56Z</time>
      </trkpt>
      <trkpt lat="44.81233" lon="4.64424">
        <ele>269.79</ele>
        <time>2020-07-18T09:26:14Z</time>
      </trkpt>
      <trkpt lat="44.81238" lon="4.64424">
        <ele>269.31</ele>
        <time>2020-07-18T09:26:17Z</time>
      </trkpt>
      <trkpt lat="44.81256" lon="4.6443">
        <ele>267.38</ele>
        <time>2020-07-18T09:26:30Z</time>
      </trkpt>
      <trkpt lat="44.81273" lon="4.64415">
        <ele>266.9</ele>
        <time>2020-07-18T09:26:45Z</time>
      </trkpt>
      <trkpt lat="44.813" lon="4.64403">
        <ele>262.58</ele>
        <time>2020-07-18T09:27:02Z</time>
      </trkpt>
      <trkpt lat="44.81323" lon="4.64389">
        <ele>258.73</ele>
        <time>2020-07-18T09:27:18Z</time>
      </trkpt>
      <trkpt lat="44.8134" lon="4.64373">
        <ele>257.77</ele>
        <time>2020-07-18T09:27:31Z</time>
      </trkpt>
      <trkpt lat="44.81354" lon="4.64357">
        <ele>259.21</ele>
        <time>2020-07-18T09:27:44Z</time>
      </trkpt>
      <trkpt lat="44.81375" lon="4.64334">
        <ele>258.73</ele>
        <time>2020-07-18T09:28:01Z</time>
      </trkpt>
      <trkpt lat="44.81387" lon="4.64327">
        <ele>259.21</ele>
        <time>2020-07-18T09:28:13Z</time>
      </trkpt>
      <trkpt lat="44.81424" lon="4.64331">
        <ele>252</ele>
        <time>2020-07-18T09:28:33Z</time>
      </trkpt>
      <trkpt lat="44.81449" lon="4.64346">
        <ele>250.56</ele>
        <time>2020-07-18T09:28:51Z</time>
      </trkpt>
      <trkpt lat="44.81467" lon="4.6436">
        <ele>253.44</ele>
        <time>2020-07-18T09:29:07Z</time>
      </trkpt>
      <trkpt lat="44.81471" lon="4.64363">
        <ele>253.44</ele>
        <time>2020-07-18T09:29:10Z</time>
      </trkpt>
      <trkpt lat="44.8148" lon="4.64372">
        <ele>254.89</ele>
        <time>2020-07-18T09:29:17Z</time>
      </trkpt>
      <trkpt lat="44.81502" lon="4.64394">
        <ele>255.85</ele>
        <time>2020-07-18T09:29:33Z</time>
      </trkpt>
      <trkpt lat="44.81518" lon="4.64414">
        <ele>256.33</ele>
        <time>2020-07-18T09:29:46Z</time>
      </trkpt>
      <trkpt lat="44.81523" lon="4.6444">
        <ele>259.21</ele>
        <time>2020-07-18T09:30:02Z</time>
      </trkpt>
      <trkpt lat="44.81526" lon="4.64465">
        <ele>262.1</ele>
        <time>2020-07-18T09:30:16Z</time>
      </trkpt>
      <trkpt lat="44.81534" lon="4.64493">
        <ele>267.86</ele>
        <time>2020-07-18T09:30:30Z</time>
      </trkpt>
      <trkpt lat="44.81547" lon="4.64518">
        <ele>274.59</ele>
        <time>2020-07-18T09:30:44Z</time>
      </trkpt>
      <trkpt lat="44.81559" lon="4.64546">
        <ele>277</ele>
        <time>2020-07-18T09:30:58Z</time>
      </trkpt>
      <trkpt lat="44.81566" lon="4.64572">
        <ele>274.11</ele>
        <time>2020-07-18T09:31:11Z</time>
      </trkpt>
      <trkpt lat="44.81564" lon="4.64596">
        <ele>281.32</ele>
        <time>2020-07-18T09:31:25Z</time>
      </trkpt>
      <trkpt lat="44.81567" lon="4.64611">
        <ele>285.65</ele>
        <time>2020-07-18T09:31:34Z</time>
      </trkpt>
      <trkpt lat="44.8158" lon="4.64624">
        <ele>286.13</ele>
        <time>2020-07-18T09:31:43Z</time>
      </trkpt>
      <trkpt lat="44.81601" lon="4.64651">
        <ele>282.28</ele>
        <time>2020-07-18T09:31:57Z</time>
      </trkpt>
      <trkpt lat="44.81605" lon="4.64671">
        <ele>280.36</ele>
        <time>2020-07-18T09:32:10Z</time>
      </trkpt>
      <trkpt lat="44.81601" lon="4.64698">
        <ele>277</ele>
        <time>2020-07-18T09:32:22Z</time>
      </trkpt>
      <trkpt lat="44.81592" lon="4.64732">
        <ele>274.11</ele>
        <time>2020-07-18T09:32:34Z</time>
      </trkpt>
      <trkpt lat="44.81594" lon="4.64741">
        <ele>273.63</ele>
        <time>2020-07-18T09:32:37Z</time>
      </trkpt>
      <trkpt lat="44.81598" lon="4.64757">
        <ele>265.94</ele>
        <time>2020-07-18T09:32:47Z</time>
      </trkpt>
      <trkpt lat="44.81612" lon="4.64743">
        <ele>259.69</ele>
        <time>2020-07-18T09:33:01Z</time>
      </trkpt>
      <trkpt lat="44.81631" lon="4.64727">
        <ele>256.33</ele>
        <time>2020-07-18T09:33:15Z</time>
      </trkpt>
      <trkpt lat="44.81637" lon="4.64717">
        <ele>246.72</ele>
        <time>2020-07-18T09:33:27Z</time>
      </trkpt>
      <trkpt lat="44.81637" lon="4.64709">
        <ele>246.72</ele>
        <time>2020-07-18T09:33:39Z</time>
      </trkpt>
      <trkpt lat="44.81633" lon="4.64691">
        <ele>247.2</ele>
        <time>2020-07-18T09:33:53Z</time>
      </trkpt>
      <trkpt lat="44.81633" lon="4.6469">
        <ele>247.68</ele>
        <time>2020-07-18T09:33:54Z</time>
      </trkpt>
      <trkpt lat="44.81623" lon="4.64667">
        <ele>247.2</ele>
        <time>2020-07-18T09:34:04Z</time>
      </trkpt>
      <trkpt lat="44.81645" lon="4.64639">
        <ele>243.35</ele>
        <time>2020-07-18T09:34:19Z</time>
      </trkpt>
      <trkpt lat="44.81659" lon="4.64603">
        <ele>235.66</ele>
        <time>2020-07-18T09:34:33Z</time>
      </trkpt>
      <trkpt lat="44.8166" lon="4.646">
        <ele>234.7</ele>
        <time>2020-07-18T09:34:34Z</time>
      </trkpt>
      <trkpt lat="44.81661" lon="4.64593">
        <ele>232.78</ele>
        <time>2020-07-18T09:34:36Z</time>
      </trkpt>
      <trkpt lat="44.81662" lon="4.64565">
        <ele>226.05</ele>
        <time>2020-07-18T09:34:45Z</time>
      </trkpt>
      <trkpt lat="44.81662" lon="4.64561">
        <ele>225.57</ele>
        <time>2020-07-18T09:34:46Z</time>
      </trkpt>
      <trkpt lat="44.81664" lon="4.64556">
        <ele>224.61</ele>
        <time>2020-07-18T09:34:48Z</time>
      </trkpt>
      <trkpt lat="44.81665" lon="4.64554">
        <ele>224.12</ele>
        <time>2020-07-18T09:34:49Z</time>
      </trkpt>
      <trkpt lat="44.81676" lon="4.64517">
        <ele>220.76</ele>
        <time>2020-07-18T09:35:04Z</time>
      </trkpt>
      <trkpt lat="44.81677" lon="4.6449">
        <ele>220.28</ele>
        <time>2020-07-18T09:35:18Z</time>
      </trkpt>
      <trkpt lat="44.81677" lon="4.64488">
        <ele>220.76</ele>
        <time>2020-07-18T09:35:19Z</time>
      </trkpt>
      <trkpt lat="44.81677" lon="4.64486">
        <ele>220.76</ele>
        <time>2020-07-18T09:35:20Z</time>
      </trkpt>
      <trkpt lat="44.81669" lon="4.64461">
        <ele>219.8</ele>
        <time>2020-07-18T09:35:33Z</time>
      </trkpt>
      <trkpt lat="44.8165" lon="4.64437">
        <ele>216.43</ele>
        <time>2020-07-18T09:35:49Z</time>
      </trkpt>
      <trkpt lat="44.81635" lon="4.64422">
        <ele>209.7</ele>
        <time>2020-07-18T09:36:02Z</time>
      </trkpt>
      <trkpt lat="44.81633" lon="4.64408">
        <ele>205.38</ele>
        <time>2020-07-18T09:36:09Z</time>
      </trkpt>
      <trkpt lat="44.81634" lon="4.64406">
        <ele>204.9</ele>
        <time>2020-07-18T09:36:10Z</time>
      </trkpt>
      <trkpt lat="44.81634" lon="4.644">
        <ele>202.98</ele>
        <time>2020-07-18T09:36:13Z</time>
      </trkpt>
      <trkpt lat="44.81634" lon="4.64397">
        <ele>201.53</ele>
        <time>2020-07-18T09:36:15Z</time>
      </trkpt>
      <trkpt lat="44.81633" lon="4.64395">
        <ele>201.05</ele>
        <time>2020-07-18T09:36:16Z</time>
      </trkpt>
      <trkpt lat="44.81633" lon="4.64392">
        <ele>200.57</ele>
        <time>2020-07-18T09:36:17Z</time>
      </trkpt>
      <trkpt lat="44.81632" lon="4.6439">
        <ele>200.09</ele>
        <time>2020-07-18T09:36:18Z</time>
      </trkpt>
      <trkpt lat="44.81632" lon="4.64388">
        <ele>199.61</ele>
        <time>2020-07-18T09:36:19Z</time>
      </trkpt>
      <trkpt lat="44.81626" lon="4.64367">
        <ele>197.21</ele>
        <time>2020-07-18T09:36:31Z</time>
      </trkpt>
      <trkpt lat="44.8163" lon="4.6436">
        <ele>197.21</ele>
        <time>2020-07-18T09:36:45Z</time>
      </trkpt>
      <trkpt lat="44.81632" lon="4.6436">
        <ele>196.73</ele>
        <time>2020-07-18T09:36:48Z</time>
      </trkpt>
      <trkpt lat="44.81644" lon="4.64355">
        <ele>192.4</ele>
        <time>2020-07-18T09:37:03Z</time>
      </trkpt>
      <trkpt lat="44.81664" lon="4.64347">
        <ele>185.19</ele>
        <time>2020-07-18T09:37:18Z</time>
      </trkpt>
      <trkpt lat="44.81683" lon="4.64363">
        <ele>178.46</ele>
        <time>2020-07-18T09:37:31Z</time>
      </trkpt>
      <trkpt lat="44.81702" lon="4.64376">
        <ele>174.62</ele>
        <time>2020-07-18T09:37:44Z</time>
      </trkpt>
      <trkpt lat="44.81708" lon="4.64384">
        <ele>174.14</ele>
        <time>2020-07-18T09:37:49Z</time>
      </trkpt>
      <trkpt lat="44.81719" lon="4.64405">
        <ele>174.14</ele>
        <time>2020-07-18T09:38:02Z</time>
      </trkpt>
      <trkpt lat="44.81727" lon="4.64427">
        <ele>180.87</ele>
        <time>2020-07-18T09:38:16Z</time>
      </trkpt>
      <trkpt lat="44.81731" lon="4.64455">
        <ele>187.59</ele>
        <time>2020-07-18T09:38:30Z</time>
      </trkpt>
      <trkpt lat="44.81733" lon="4.64466">
        <ele>189.52</ele>
        <time>2020-07-18T09:38:35Z</time>
      </trkpt>
      <trkpt lat="44.81734" lon="4.64475">
        <ele>190.96</ele>
        <time>2020-07-18T09:38:40Z</time>
      </trkpt>
      <trkpt lat="44.81737" lon="4.64495">
        <ele>190.48</ele>
        <time>2020-07-18T09:38:47Z</time>
      </trkpt>
      <trkpt lat="44.81741" lon="4.64537">
        <ele>192.4</ele>
        <time>2020-07-18T09:39:03Z</time>
      </trkpt>
      <trkpt lat="44.81739" lon="4.64565">
        <ele>198.65</ele>
        <time>2020-07-18T09:39:17Z</time>
      </trkpt>
      <trkpt lat="44.81735" lon="4.64598">
        <ele>200.57</ele>
        <time>2020-07-18T09:39:31Z</time>
      </trkpt>
      <trkpt lat="44.81724" lon="4.64632">
        <ele>198.17</ele>
        <time>2020-07-18T09:39:45Z</time>
      </trkpt>
      <trkpt lat="44.81722" lon="4.64667">
        <ele>195.77</ele>
        <time>2020-07-18T09:40:00Z</time>
      </trkpt>
      <trkpt lat="44.81723" lon="4.64688">
        <ele>197.69</ele>
        <time>2020-07-18T09:40:09Z</time>
      </trkpt>
      <trkpt lat="44.81729" lon="4.64724">
        <ele>199.13</ele>
        <time>2020-07-18T09:40:24Z</time>
      </trkpt>
      <trkpt lat="44.81737" lon="4.64759">
        <ele>199.13</ele>
        <time>2020-07-18T09:40:39Z</time>
      </trkpt>
      <trkpt lat="44.81743" lon="4.64793">
        <ele>202.49</ele>
        <time>2020-07-18T09:40:54Z</time>
      </trkpt>
      <trkpt lat="44.81743" lon="4.64799">
        <ele>202.49</ele>
        <time>2020-07-18T09:40:57Z</time>
      </trkpt>
      <trkpt lat="44.81743" lon="4.6481">
        <ele>202.01</ele>
        <time>2020-07-18T09:41:01Z</time>
      </trkpt>
      <trkpt lat="44.81747" lon="4.64849">
        <ele>202.01</ele>
        <time>2020-07-18T09:41:16Z</time>
      </trkpt>
      <trkpt lat="44.8175" lon="4.64868">
        <ele>203.94</ele>
        <time>2020-07-18T09:41:24Z</time>
      </trkpt>
      <trkpt lat="44.8175" lon="4.64874">
        <ele>205.38</ele>
        <time>2020-07-18T09:41:27Z</time>
      </trkpt>
      <trkpt lat="44.81754" lon="4.64904">
        <ele>208.26</ele>
        <time>2020-07-18T09:41:42Z</time>
      </trkpt>
      <trkpt lat="44.81759" lon="4.64946">
        <ele>209.22</ele>
        <time>2020-07-18T09:41:57Z</time>
      </trkpt>
      <trkpt lat="44.81762" lon="4.6499">
        <ele>198.65</ele>
        <time>2020-07-18T09:42:13Z</time>
      </trkpt>
      <trkpt lat="44.81769" lon="4.6502">
        <ele>201.53</ele>
        <time>2020-07-18T09:42:27Z</time>
      </trkpt>
      <trkpt lat="44.81768" lon="4.65055">
        <ele>204.42</ele>
        <time>2020-07-18T09:42:43Z</time>
      </trkpt>
      <trkpt lat="44.81766" lon="4.65092">
        <ele>201.53</ele>
        <time>2020-07-18T09:42:58Z</time>
      </trkpt>
      <trkpt lat="44.81766" lon="4.6513">
        <ele>199.13</ele>
        <time>2020-07-18T09:43:14Z</time>
      </trkpt>
      <trkpt lat="44.81767" lon="4.65143">
        <ele>197.21</ele>
        <time>2020-07-18T09:43:21Z</time>
      </trkpt>
      <trkpt lat="44.81773" lon="4.65177">
        <ele>197.21</ele>
        <time>2020-07-18T09:43:37Z</time>
      </trkpt>
      <trkpt lat="44.81775" lon="4.65204">
        <ele>196.25</ele>
        <time>2020-07-18T09:43:48Z</time>
      </trkpt>
      <trkpt lat="44.81781" lon="4.65235">
        <ele>197.69</ele>
        <time>2020-07-18T09:44:02Z</time>
      </trkpt>
      <trkpt lat="44.81789" lon="4.65268">
        <ele>201.05</ele>
        <time>2020-07-18T09:44:17Z</time>
      </trkpt>
      <trkpt lat="44.81792" lon="4.65304">
        <ele>201.05</ele>
        <time>2020-07-18T09:44:31Z</time>
      </trkpt>
      <trkpt lat="44.81792" lon="4.65339">
        <ele>199.61</ele>
        <time>2020-07-18T09:44:45Z</time>
      </trkpt>
      <trkpt lat="44.81795" lon="4.65376">
        <ele>198.65</ele>
        <time>2020-07-18T09:45:00Z</time>
      </trkpt>
      <trkpt lat="44.81792" lon="4.65411">
        <ele>201.05</ele>
        <time>2020-07-18T09:45:17Z</time>
      </trkpt>
      <trkpt lat="44.81791" lon="4.65446">
        <ele>198.17</ele>
        <time>2020-07-18T09:45:33Z</time>
      </trkpt>
      <trkpt lat="44.81798" lon="4.65482">
        <ele>199.61</ele>
        <time>2020-07-18T09:45:50Z</time>
      </trkpt>
      <trkpt lat="44.81805" lon="4.65511">
        <ele>202.98</ele>
        <time>2020-07-18T09:46:05Z</time>
      </trkpt>
      <trkpt lat="44.81812" lon="4.65539">
        <ele>210.19</ele>
        <time>2020-07-18T09:46:20Z</time>
      </trkpt>
      <trkpt lat="44.8182" lon="4.65565">
        <ele>208.74</ele>
        <time>2020-07-18T09:46:33Z</time>
      </trkpt>
      <trkpt lat="44.81825" lon="4.65594">
        <ele>207.78</ele>
        <time>2020-07-18T09:46:47Z</time>
      </trkpt>
      <trkpt lat="44.81824" lon="4.65595">
        <ele>207.3</ele>
        <time>2020-07-18T09:46:48Z</time>
      </trkpt>
      <trkpt lat="44.81835" lon="4.65642">
        <ele>202.98</ele>
        <time>2020-07-18T09:47:03Z</time>
      </trkpt>
      <trkpt lat="44.8184" lon="4.65683">
        <ele>196.73</ele>
        <time>2020-07-18T09:47:19Z</time>
      </trkpt>
      <trkpt lat="44.81844" lon="4.6572">
        <ele>196.25</ele>
        <time>2020-07-18T09:47:35Z</time>
      </trkpt>
      <trkpt lat="44.81844" lon="4.6575">
        <ele>200.57</ele>
        <time>2020-07-18T09:47:50Z</time>
      </trkpt>
      <trkpt lat="44.81845" lon="4.65781">
        <ele>201.53</ele>
        <time>2020-07-18T09:48:05Z</time>
      </trkpt>
      <trkpt lat="44.81846" lon="4.65816">
        <ele>201.05</ele>
        <time>2020-07-18T09:48:21Z</time>
      </trkpt>
      <trkpt lat="44.81846" lon="4.65835">
        <ele>201.05</ele>
        <time>2020-07-18T09:48:28Z</time>
      </trkpt>
      <trkpt lat="44.81843" lon="4.65885">
        <ele>198.65</ele>
        <time>2020-07-18T09:48:47Z</time>
      </trkpt>
      <trkpt lat="44.81846" lon="4.65921">
        <ele>197.21</ele>
        <time>2020-07-18T09:49:02Z</time>
      </trkpt>
      <trkpt lat="44.81849" lon="4.65957">
        <ele>194.32</ele>
        <time>2020-07-18T09:49:18Z</time>
      </trkpt>
      <trkpt lat="44.81853" lon="4.65985">
        <ele>195.28</ele>
        <time>2020-07-18T09:49:33Z</time>
      </trkpt>
      <trkpt lat="44.81858" lon="4.66026">
        <ele>192.88</ele>
        <time>2020-07-18T09:49:50Z</time>
      </trkpt>
      <trkpt lat="44.81862" lon="4.66034">
        <ele>191.92</ele>
        <time>2020-07-18T09:49:54Z</time>
      </trkpt>
      <trkpt lat="44.81865" lon="4.66045">
        <ele>190.96</ele>
        <time>2020-07-18T09:49:59Z</time>
      </trkpt>
      <trkpt lat="44.81874" lon="4.66077">
        <ele>188.56</ele>
        <time>2020-07-18T09:50:14Z</time>
      </trkpt>
      <trkpt lat="44.81882" lon="4.66107">
        <ele>185.67</ele>
        <time>2020-07-18T09:50:29Z</time>
      </trkpt>
      <trkpt lat="44.81892" lon="4.66122">
        <ele>183.27</ele>
        <time>2020-07-18T09:50:42Z</time>
      </trkpt>
      <trkpt lat="44.81899" lon="4.66135">
        <ele>181.35</ele>
        <time>2020-07-18T09:50:54Z</time>
      </trkpt>
      <trkpt lat="44.8191" lon="4.66156">
        <ele>180.87</ele>
        <time>2020-07-18T09:51:06Z</time>
      </trkpt>
      <trkpt lat="44.81911" lon="4.66161">
        <ele>180.38</ele>
        <time>2020-07-18T09:51:10Z</time>
      </trkpt>
      <trkpt lat="44.81912" lon="4.66163">
        <ele>180.38</ele>
        <time>2020-07-18T09:51:11Z</time>
      </trkpt>
      <trkpt lat="44.81913" lon="4.66165">
        <ele>180.38</ele>
        <time>2020-07-18T09:51:12Z</time>
      </trkpt>
      <trkpt lat="44.81923" lon="4.66191">
        <ele>179.42</ele>
        <time>2020-07-18T09:51:24Z</time>
      </trkpt>
      <trkpt lat="44.81932" lon="4.66222">
        <ele>178.46</ele>
        <time>2020-07-18T09:51:38Z</time>
      </trkpt>
      <trkpt lat="44.8194" lon="4.66247">
        <ele>177.5</ele>
        <time>2020-07-18T09:51:50Z</time>
      </trkpt>
      <trkpt lat="44.81948" lon="4.66273">
        <ele>177.02</ele>
        <time>2020-07-18T09:52:03Z</time>
      </trkpt>
      <trkpt lat="44.81958" lon="4.66304">
        <ele>176.54</ele>
        <time>2020-07-18T09:52:18Z</time>
      </trkpt>
      <trkpt lat="44.81964" lon="4.66337">
        <ele>176.54</ele>
        <time>2020-07-18T09:52:32Z</time>
      </trkpt>
      <trkpt lat="44.81968" lon="4.66366">
        <ele>176.06</ele>
        <time>2020-07-18T09:52:44Z</time>
      </trkpt>
      <trkpt lat="44.81982" lon="4.66396">
        <ele>175.58</ele>
        <time>2020-07-18T09:53:00Z</time>
      </trkpt>
      <trkpt lat="44.81993" lon="4.66423">
        <ele>175.58</ele>
        <time>2020-07-18T09:53:15Z</time>
      </trkpt>
      <trkpt lat="44.82008" lon="4.6645">
        <ele>176.06</ele>
        <time>2020-07-18T09:53:30Z</time>
      </trkpt>
      <trkpt lat="44.82021" lon="4.66477">
        <ele>175.58</ele>
        <time>2020-07-18T09:53:44Z</time>
      </trkpt>
      <trkpt lat="44.82036" lon="4.66507">
        <ele>175.58</ele>
        <time>2020-07-18T09:53:59Z</time>
      </trkpt>
      <trkpt lat="44.82048" lon="4.66529">
        <ele>175.1</ele>
        <time>2020-07-18T09:54:11Z</time>
      </trkpt>
      <trkpt lat="44.82066" lon="4.66557">
        <ele>173.66</ele>
        <time>2020-07-18T09:54:27Z</time>
      </trkpt>
      <trkpt lat="44.82078" lon="4.66569">
        <ele>173.17</ele>
        <time>2020-07-18T09:54:39Z</time>
      </trkpt>
      <trkpt lat="44.82096" lon="4.66584">
        <ele>173.17</ele>
        <time>2020-07-18T09:54:53Z</time>
      </trkpt>
      <trkpt lat="44.82109" lon="4.66599">
        <ele>172.69</ele>
        <time>2020-07-18T09:55:01Z</time>
      </trkpt>
      <trkpt lat="44.82111" lon="4.666">
        <ele>173.17</ele>
        <time>2020-07-18T09:55:02Z</time>
      </trkpt>
      <trkpt lat="44.82132" lon="4.66618">
        <ele>172.69</ele>
        <time>2020-07-18T09:55:17Z</time>
      </trkpt>
      <trkpt lat="44.82147" lon="4.66639">
        <ele>172.69</ele>
        <time>2020-07-18T09:55:31Z</time>
      </trkpt>
      <trkpt lat="44.82161" lon="4.66664">
        <ele>172.69</ele>
        <time>2020-07-18T09:55:45Z</time>
      </trkpt>
      <trkpt lat="44.82176" lon="4.66695">
        <ele>171.73</ele>
        <time>2020-07-18T09:56:00Z</time>
      </trkpt>
      <trkpt lat="44.82189" lon="4.66723">
        <ele>171.25</ele>
        <time>2020-07-18T09:56:14Z</time>
      </trkpt>
      <trkpt lat="44.82202" lon="4.66749">
        <ele>170.77</ele>
        <time>2020-07-18T09:56:28Z</time>
      </trkpt>
      <trkpt lat="44.82219" lon="4.66776">
        <ele>170.29</ele>
        <time>2020-07-18T09:56:45Z</time>
      </trkpt>
      <trkpt lat="44.82234" lon="4.66799">
        <ele>169.33</ele>
        <time>2020-07-18T09:56:58Z</time>
      </trkpt>
      <trkpt lat="44.82252" lon="4.66828">
        <ele>168.37</ele>
        <time>2020-07-18T09:57:12Z</time>
      </trkpt>
      <trkpt lat="44.82272" lon="4.66846">
        <ele>167.89</ele>
        <time>2020-07-18T09:57:26Z</time>
      </trkpt>
      <trkpt lat="44.82287" lon="4.66869">
        <ele>168.37</ele>
        <time>2020-07-18T09:57:41Z</time>
      </trkpt>
      <trkpt lat="44.82304" lon="4.66893">
        <ele>167.41</ele>
        <time>2020-07-18T09:57:55Z</time>
      </trkpt>
      <trkpt lat="44.82321" lon="4.66929">
        <ele>160.2</ele>
        <time>2020-07-18T09:58:10Z</time>
      </trkpt>
      <trkpt lat="44.82333" lon="4.66947">
        <ele>157.31</ele>
        <time>2020-07-18T09:58:23Z</time>
      </trkpt>
      <trkpt lat="44.82334" lon="4.66949">
        <ele>157.31</ele>
        <time>2020-07-18T09:58:24Z</time>
      </trkpt>
      <trkpt lat="44.82335" lon="4.66951">
        <ele>157.31</ele>
        <time>2020-07-18T09:58:25Z</time>
      </trkpt>
      <trkpt lat="44.82336" lon="4.66953">
        <ele>157.31</ele>
        <time>2020-07-18T09:58:26Z</time>
      </trkpt>
      <trkpt lat="44.82337" lon="4.66955">
        <ele>157.31</ele>
        <time>2020-07-18T09:58:27Z</time>
      </trkpt>
      <trkpt lat="44.82356" lon="4.66983">
        <ele>156.83</ele>
        <time>2020-07-18T09:58:43Z</time>
      </trkpt>
      <trkpt lat="44.82371" lon="4.67012">
        <ele>157.79</ele>
        <time>2020-07-18T09:59:00Z</time>
      </trkpt>
      <trkpt lat="44.82381" lon="4.67037">
        <ele>159.72</ele>
        <time>2020-07-18T09:59:14Z</time>
      </trkpt>
      <trkpt lat="44.82391" lon="4.67061">
        <ele>161.16</ele>
        <time>2020-07-18T09:59:26Z</time>
      </trkpt>
      <trkpt lat="44.82392" lon="4.67063">
        <ele>161.16</ele>
        <time>2020-07-18T09:59:27Z</time>
      </trkpt>
      <trkpt lat="44.82408" lon="4.67103">
        <ele>162.12</ele>
        <time>2020-07-18T09:59:45Z</time>
      </trkpt>
      <trkpt lat="44.82422" lon="4.67136">
        <ele>162.6</ele>
        <time>2020-07-18T10:00:01Z</time>
      </trkpt>
      <trkpt lat="44.82434" lon="4.67168">
        <ele>165.48</ele>
        <time>2020-07-18T10:00:18Z</time>
      </trkpt>
      <trkpt lat="44.82435" lon="4.67172">
        <ele>165.48</ele>
        <time>2020-07-18T10:00:20Z</time>
      </trkpt>
      <trkpt lat="44.82435" lon="4.67174">
        <ele>165.48</ele>
        <time>2020-07-18T10:00:21Z</time>
      </trkpt>
      <trkpt lat="44.82436" lon="4.67176">
        <ele>165.48</ele>
        <time>2020-07-18T10:00:22Z</time>
      </trkpt>
      <trkpt lat="44.82453" lon="4.67212">
        <ele>165.48</ele>
        <time>2020-07-18T10:00:40Z</time>
      </trkpt>
      <trkpt lat="44.8246" lon="4.67227">
        <ele>166.93</ele>
        <time>2020-07-18T10:00:49Z</time>
      </trkpt>
      <trkpt lat="44.82462" lon="4.67229">
        <ele>167.41</ele>
        <time>2020-07-18T10:00:50Z</time>
      </trkpt>
      <trkpt lat="44.82463" lon="4.67231">
        <ele>167.41</ele>
        <time>2020-07-18T10:00:51Z</time>
      </trkpt>
      <trkpt lat="44.82476" lon="4.67258">
        <ele>168.85</ele>
        <time>2020-07-18T10:01:06Z</time>
      </trkpt>
      <trkpt lat="44.82478" lon="4.67265">
        <ele>169.33</ele>
        <time>2020-07-18T10:01:10Z</time>
      </trkpt>
      <trkpt lat="44.82496" lon="4.67295">
        <ele>169.81</ele>
        <time>2020-07-18T10:01:24Z</time>
      </trkpt>
      <trkpt lat="44.82515" lon="4.67323">
        <ele>170.29</ele>
        <time>2020-07-18T10:01:40Z</time>
      </trkpt>
      <trkpt lat="44.82536" lon="4.67343">
        <ele>172.69</ele>
        <time>2020-07-18T10:01:58Z</time>
      </trkpt>
      <trkpt lat="44.82554" lon="4.67372">
        <ele>172.21</ele>
        <time>2020-07-18T10:02:15Z</time>
      </trkpt>
      <trkpt lat="44.82566" lon="4.6741">
        <ele>168.37</ele>
        <time>2020-07-18T10:02:29Z</time>
      </trkpt>
      <trkpt lat="44.82575" lon="4.6744">
        <ele>166.93</ele>
        <time>2020-07-18T10:02:42Z</time>
      </trkpt>
      <trkpt lat="44.82575" lon="4.67443">
        <ele>166.45</ele>
        <time>2020-07-18T10:02:44Z</time>
      </trkpt>
      <trkpt lat="44.82577" lon="4.6746">
        <ele>166.45</ele>
        <time>2020-07-18T10:02:56Z</time>
      </trkpt>
      <trkpt lat="44.82584" lon="4.67494">
        <ele>165.96</ele>
        <time>2020-07-18T10:03:13Z</time>
      </trkpt>
      <trkpt lat="44.82601" lon="4.6754">
        <ele>165.96</ele>
        <time>2020-07-18T10:03:29Z</time>
      </trkpt>
      <trkpt lat="44.82608" lon="4.67574">
        <ele>164.52</ele>
        <time>2020-07-18T10:03:42Z</time>
      </trkpt>
      <trkpt lat="44.82616" lon="4.67613">
        <ele>163.56</ele>
        <time>2020-07-18T10:03:59Z</time>
      </trkpt>
      <trkpt lat="44.82622" lon="4.67656">
        <ele>162.6</ele>
        <time>2020-07-18T10:04:17Z</time>
      </trkpt>
      <trkpt lat="44.82625" lon="4.67697">
        <ele>162.6</ele>
        <time>2020-07-18T10:04:35Z</time>
      </trkpt>
      <trkpt lat="44.82626" lon="4.67706">
        <ele>162.12</ele>
        <time>2020-07-18T10:04:39Z</time>
      </trkpt>
      <trkpt lat="44.82626" lon="4.67708">
        <ele>162.12</ele>
        <time>2020-07-18T10:04:40Z</time>
      </trkpt>
      <trkpt lat="44.82626" lon="4.67711">
        <ele>162.12</ele>
        <time>2020-07-18T10:04:41Z</time>
      </trkpt>
      <trkpt lat="44.82625" lon="4.67713">
        <ele>162.12</ele>
        <time>2020-07-18T10:04:42Z</time>
      </trkpt>
      <trkpt lat="44.82625" lon="4.67716">
        <ele>162.12</ele>
        <time>2020-07-18T10:04:43Z</time>
      </trkpt>
      <trkpt lat="44.82626" lon="4.67718">
        <ele>161.64</ele>
        <time>2020-07-18T10:04:44Z</time>
      </trkpt>
      <trkpt lat="44.82626" lon="4.67721">
        <ele>161.64</ele>
        <time>2020-07-18T10:04:45Z</time>
      </trkpt>
      <trkpt lat="44.82626" lon="4.67723">
        <ele>161.16</ele>
        <time>2020-07-18T10:04:46Z</time>
      </trkpt>
      <trkpt lat="44.82629" lon="4.67756">
        <ele>159.24</ele>
        <time>2020-07-18T10:05:02Z</time>
      </trkpt>
      <trkpt lat="44.82631" lon="4.67781">
        <ele>158.27</ele>
        <time>2020-07-18T10:05:14Z</time>
      </trkpt>
      <trkpt lat="44.8263" lon="4.67811">
        <ele>158.27</ele>
        <time>2020-07-18T10:05:27Z</time>
      </trkpt>
      <trkpt lat="44.8263" lon="4.67849">
        <ele>158.27</ele>
        <time>2020-07-18T10:05:43Z</time>
      </trkpt>
      <trkpt lat="44.82629" lon="4.67885">
        <ele>157.31</ele>
        <time>2020-07-18T10:06:00Z</time>
      </trkpt>
      <trkpt lat="44.82635" lon="4.67919">
        <ele>156.35</ele>
        <time>2020-07-18T10:06:15Z</time>
      </trkpt>
      <trkpt lat="44.82641" lon="4.67949">
        <ele>153.95</ele>
        <time>2020-07-18T10:06:29Z</time>
      </trkpt>
      <trkpt lat="44.82641" lon="4.67951">
        <ele>153.47</ele>
        <time>2020-07-18T10:06:30Z</time>
      </trkpt>
      <trkpt lat="44.82641" lon="4.67953">
        <ele>153.47</ele>
        <time>2020-07-18T10:06:31Z</time>
      </trkpt>
      <trkpt lat="44.82641" lon="4.67956">
        <ele>153.47</ele>
        <time>2020-07-18T10:06:32Z</time>
      </trkpt>
      <trkpt lat="44.82641" lon="4.67958">
        <ele>153.47</ele>
        <time>2020-07-18T10:06:33Z</time>
      </trkpt>
      <trkpt lat="44.8264" lon="4.67959">
        <ele>153.95</ele>
        <time>2020-07-18T10:06:34Z</time>
      </trkpt>
      <trkpt lat="44.82639" lon="4.67961">
        <ele>153.95</ele>
        <time>2020-07-18T10:06:35Z</time>
      </trkpt>
      <trkpt lat="44.82638" lon="4.67963">
        <ele>153.95</ele>
        <time>2020-07-18T10:06:36Z</time>
      </trkpt>
      <trkpt lat="44.82638" lon="4.67966">
        <ele>153.47</ele>
        <time>2020-07-18T10:06:38Z</time>
      </trkpt>
      <trkpt lat="44.82638" lon="4.67969">
        <ele>153.47</ele>
        <time>2020-07-18T10:06:39Z</time>
      </trkpt>
      <trkpt lat="44.82638" lon="4.67971">
        <ele>153.47</ele>
        <time>2020-07-18T10:06:40Z</time>
      </trkpt>
      <trkpt lat="44.82639" lon="4.67974">
        <ele>153.47</ele>
        <time>2020-07-18T10:06:41Z</time>
      </trkpt>
      <trkpt lat="44.8264" lon="4.67991">
        <ele>152.99</ele>
        <time>2020-07-18T10:06:48Z</time>
      </trkpt>
      <trkpt lat="44.8264" lon="4.67994">
        <ele>152.99</ele>
        <time>2020-07-18T10:06:49Z</time>
      </trkpt>
      <trkpt lat="44.82639" lon="4.67996">
        <ele>153.47</ele>
        <time>2020-07-18T10:06:50Z</time>
      </trkpt>
      <trkpt lat="44.82639" lon="4.67999">
        <ele>153.47</ele>
        <time>2020-07-18T10:06:51Z</time>
      </trkpt>
      <trkpt lat="44.82639" lon="4.68001">
        <ele>153.47</ele>
        <time>2020-07-18T10:06:52Z</time>
      </trkpt>
      <trkpt lat="44.82639" lon="4.68004">
        <ele>153.47</ele>
        <time>2020-07-18T10:06:53Z</time>
      </trkpt>
      <trkpt lat="44.82639" lon="4.68006">
        <ele>153.47</ele>
        <time>2020-07-18T10:06:54Z</time>
      </trkpt>
      <trkpt lat="44.82639" lon="4.68008">
        <ele>153.47</ele>
        <time>2020-07-18T10:06:55Z</time>
      </trkpt>
      <trkpt lat="44.82644" lon="4.68027">
        <ele>153.47</ele>
        <time>2020-07-18T10:07:06Z</time>
      </trkpt>
      <trkpt lat="44.82645" lon="4.68046">
        <ele>153.95</ele>
        <time>2020-07-18T10:07:20Z</time>
      </trkpt>
      <trkpt lat="44.82638" lon="4.68046">
        <ele>153.95</ele>
        <time>2020-07-18T10:07:25Z</time>
      </trkpt>
      <trkpt lat="44.82633" lon="4.68044">
        <ele>154.43</ele>
        <time>2020-07-18T10:07:31Z</time>
      </trkpt>
      <trkpt lat="44.82613" lon="4.68022">
        <ele>156.35</ele>
        <time>2020-07-18T10:07:48Z</time>
      </trkpt>
      <trkpt lat="44.82616" lon="4.68019">
        <ele>157.79</ele>
        <time>2020-07-18T10:07:58Z</time>
      </trkpt>
      <trkpt lat="44.82618" lon="4.68017">
        <ele>156.83</ele>
        <time>2020-07-18T10:08:22Z</time>
      </trkpt>
      <trkpt lat="44.82617" lon="4.68017">
        <ele>154.91</ele>
        <time>2020-07-18T10:08:49Z</time>
      </trkpt>
    </trkseg>
  </trk>
</gpx>